<?xml version="1.0" encoding="UTF-8" standalone="no" ?>
<gpx xmlns="http://www.topografix.com/GPX/1/1" xmlns:xsi="http://www.w3.org/2001/XMLSchema-instance" xsi:schemaLocation="http://www.topografix.com/GPX/1/1 http://www.topografix.com/GPX/1/1/gpx.xsd" version="1.1" creator="VisuGPX - https://www.visugpx.com">
  <metadata>
    <name>Tour du Mont Puget</name>
    <desc><![CDATA[Tour du Mont Puget]]></desc>
  </metadata>
  <trk>
    <name><![CDATA[2016-05-19 15:55:43]]></name>
    <trkseg>
      <trkpt lat="43.24034" lon="5.45698">
        <ele>325.54</ele>
        <time>2016-05-19T07:28:08Z</time>
      </trkpt>
      <trkpt lat="43.24032" lon="5.45703">
        <ele>326.5</ele>
        <time>2016-05-19T07:28:33Z</time>
      </trkpt>
      <trkpt lat="43.24031" lon="5.45704">
        <ele>326.99</ele>
        <time>2016-05-19T07:28:58Z</time>
      </trkpt>
      <trkpt lat="43.24034" lon="5.45701">
        <ele>326.02</ele>
        <time>2016-05-19T07:29:23Z</time>
      </trkpt>
      <trkpt lat="43.24013" lon="5.45699">
        <ele>322.18</ele>
        <time>2016-05-19T07:29:48Z</time>
      </trkpt>
      <trkpt lat="43.24007" lon="5.45697">
        <ele>325.54</ele>
        <time>2016-05-19T07:30:13Z</time>
      </trkpt>
      <trkpt lat="43.2398" lon="5.45699">
        <ele>324.58</ele>
        <time>2016-05-19T07:30:38Z</time>
      </trkpt>
      <trkpt lat="43.23951" lon="5.45696">
        <ele>325.06</ele>
        <time>2016-05-19T07:31:03Z</time>
      </trkpt>
      <trkpt lat="43.23925" lon="5.45689">
        <ele>328.43</ele>
        <time>2016-05-19T07:31:28Z</time>
      </trkpt>
      <trkpt lat="43.23901" lon="5.45704">
        <ele>328.91</ele>
        <time>2016-05-19T07:31:53Z</time>
      </trkpt>
      <trkpt lat="43.23881" lon="5.45731">
        <ele>328.43</ele>
        <time>2016-05-19T07:32:18Z</time>
      </trkpt>
      <trkpt lat="43.23863" lon="5.45756">
        <ele>332.75</ele>
        <time>2016-05-19T07:32:43Z</time>
      </trkpt>
      <trkpt lat="43.2384" lon="5.4577">
        <ele>333.71</ele>
        <time>2016-05-19T07:33:08Z</time>
      </trkpt>
      <trkpt lat="43.23814" lon="5.45782">
        <ele>332.27</ele>
        <time>2016-05-19T07:33:33Z</time>
      </trkpt>
      <trkpt lat="43.23786" lon="5.45801">
        <ele>332.27</ele>
        <time>2016-05-19T07:33:58Z</time>
      </trkpt>
      <trkpt lat="43.23756" lon="5.45799">
        <ele>330.35</ele>
        <time>2016-05-19T07:34:23Z</time>
      </trkpt>
      <trkpt lat="43.23728" lon="5.45793">
        <ele>333.23</ele>
        <time>2016-05-19T07:34:48Z</time>
      </trkpt>
      <trkpt lat="43.23701" lon="5.45795">
        <ele>333.23</ele>
        <time>2016-05-19T07:35:13Z</time>
      </trkpt>
      <trkpt lat="43.23679" lon="5.45797">
        <ele>333.23</ele>
        <time>2016-05-19T07:35:38Z</time>
      </trkpt>
      <trkpt lat="43.2366" lon="5.45801">
        <ele>336.6</ele>
        <time>2016-05-19T07:36:03Z</time>
      </trkpt>
      <trkpt lat="43.23641" lon="5.45808">
        <ele>339.96</ele>
        <time>2016-05-19T07:36:28Z</time>
      </trkpt>
      <trkpt lat="43.23624" lon="5.45822">
        <ele>344.29</ele>
        <time>2016-05-19T07:36:53Z</time>
      </trkpt>
      <trkpt lat="43.23611" lon="5.4584">
        <ele>346.21</ele>
        <time>2016-05-19T07:37:18Z</time>
      </trkpt>
      <trkpt lat="43.23597" lon="5.45859">
        <ele>349.1</ele>
        <time>2016-05-19T07:37:43Z</time>
      </trkpt>
      <trkpt lat="43.23589" lon="5.45887">
        <ele>354.38</ele>
        <time>2016-05-19T07:38:08Z</time>
      </trkpt>
      <trkpt lat="43.2358" lon="5.45902">
        <ele>354.38</ele>
        <time>2016-05-19T07:38:33Z</time>
      </trkpt>
      <trkpt lat="43.23574" lon="5.45925">
        <ele>360.15</ele>
        <time>2016-05-19T07:38:58Z</time>
      </trkpt>
      <trkpt lat="43.23569" lon="5.45945">
        <ele>362.55</ele>
        <time>2016-05-19T07:39:23Z</time>
      </trkpt>
      <trkpt lat="43.23566" lon="5.45969">
        <ele>365.92</ele>
        <time>2016-05-19T07:39:48Z</time>
      </trkpt>
      <trkpt lat="43.23565" lon="5.45987">
        <ele>367.84</ele>
        <time>2016-05-19T07:40:13Z</time>
      </trkpt>
      <trkpt lat="43.23565" lon="5.46005">
        <ele>372.17</ele>
        <time>2016-05-19T07:40:38Z</time>
      </trkpt>
      <trkpt lat="43.23572" lon="5.46028">
        <ele>377.45</ele>
        <time>2016-05-19T07:41:03Z</time>
      </trkpt>
      <trkpt lat="43.23575" lon="5.4605">
        <ele>379.86</ele>
        <time>2016-05-19T07:41:28Z</time>
      </trkpt>
      <trkpt lat="43.23579" lon="5.46074">
        <ele>384.18</ele>
        <time>2016-05-19T07:41:53Z</time>
      </trkpt>
      <trkpt lat="43.23581" lon="5.46096">
        <ele>389.95</ele>
        <time>2016-05-19T07:42:18Z</time>
      </trkpt>
      <trkpt lat="43.2358" lon="5.46118">
        <ele>395.24</ele>
        <time>2016-05-19T07:42:43Z</time>
      </trkpt>
      <trkpt lat="43.23576" lon="5.46143">
        <ele>399.57</ele>
        <time>2016-05-19T07:43:08Z</time>
      </trkpt>
      <trkpt lat="43.23567" lon="5.46172">
        <ele>401.97</ele>
        <time>2016-05-19T07:43:33Z</time>
      </trkpt>
      <trkpt lat="43.23546" lon="5.4618">
        <ele>395.24</ele>
        <time>2016-05-19T07:43:58Z</time>
      </trkpt>
      <trkpt lat="43.23526" lon="5.46187">
        <ele>391.87</ele>
        <time>2016-05-19T07:44:23Z</time>
      </trkpt>
      <trkpt lat="43.23507" lon="5.46198">
        <ele>390.43</ele>
        <time>2016-05-19T07:44:48Z</time>
      </trkpt>
      <trkpt lat="43.23489" lon="5.46213">
        <ele>390.43</ele>
        <time>2016-05-19T07:45:13Z</time>
      </trkpt>
      <trkpt lat="43.23473" lon="5.46237">
        <ele>387.55</ele>
        <time>2016-05-19T07:45:38Z</time>
      </trkpt>
      <trkpt lat="43.23454" lon="5.46262">
        <ele>383.22</ele>
        <time>2016-05-19T07:46:03Z</time>
      </trkpt>
      <trkpt lat="43.23439" lon="5.46291">
        <ele>383.22</ele>
        <time>2016-05-19T07:46:28Z</time>
      </trkpt>
      <trkpt lat="43.23421" lon="5.46317">
        <ele>378.9</ele>
        <time>2016-05-19T07:46:53Z</time>
      </trkpt>
      <trkpt lat="43.23404" lon="5.46341">
        <ele>383.7</ele>
        <time>2016-05-19T07:47:18Z</time>
      </trkpt>
      <trkpt lat="43.23387" lon="5.46362">
        <ele>382.74</ele>
        <time>2016-05-19T07:47:43Z</time>
      </trkpt>
      <trkpt lat="43.2337" lon="5.46381">
        <ele>383.22</ele>
        <time>2016-05-19T07:48:08Z</time>
      </trkpt>
      <trkpt lat="43.23355" lon="5.464">
        <ele>384.66</ele>
        <time>2016-05-19T07:48:33Z</time>
      </trkpt>
      <trkpt lat="43.23334" lon="5.46415">
        <ele>389.47</ele>
        <time>2016-05-19T07:48:58Z</time>
      </trkpt>
      <trkpt lat="43.23317" lon="5.46425">
        <ele>389.47</ele>
        <time>2016-05-19T07:49:23Z</time>
      </trkpt>
      <trkpt lat="43.23294" lon="5.46424">
        <ele>388.51</ele>
        <time>2016-05-19T07:49:48Z</time>
      </trkpt>
      <trkpt lat="43.23276" lon="5.46425">
        <ele>397.16</ele>
        <time>2016-05-19T07:50:13Z</time>
      </trkpt>
      <trkpt lat="43.23255" lon="5.4641">
        <ele>392.84</ele>
        <time>2016-05-19T07:50:38Z</time>
      </trkpt>
      <trkpt lat="43.23232" lon="5.464">
        <ele>394.76</ele>
        <time>2016-05-19T07:51:03Z</time>
      </trkpt>
      <trkpt lat="43.2321" lon="5.46411">
        <ele>392.36</ele>
        <time>2016-05-19T07:51:28Z</time>
      </trkpt>
      <trkpt lat="43.23187" lon="5.46423">
        <ele>387.07</ele>
        <time>2016-05-19T07:51:53Z</time>
      </trkpt>
      <trkpt lat="43.23169" lon="5.46447">
        <ele>381.3</ele>
        <time>2016-05-19T07:52:18Z</time>
      </trkpt>
      <trkpt lat="43.23157" lon="5.46448">
        <ele>379.38</ele>
        <time>2016-05-19T07:52:43Z</time>
      </trkpt>
      <trkpt lat="43.23149" lon="5.46427">
        <ele>372.17</ele>
        <time>2016-05-19T07:53:08Z</time>
      </trkpt>
      <trkpt lat="43.23141" lon="5.46409">
        <ele>369.28</ele>
        <time>2016-05-19T07:53:33Z</time>
      </trkpt>
      <trkpt lat="43.23138" lon="5.46377">
        <ele>368.8</ele>
        <time>2016-05-19T07:53:58Z</time>
      </trkpt>
      <trkpt lat="43.23134" lon="5.46352">
        <ele>364.96</ele>
        <time>2016-05-19T07:54:23Z</time>
      </trkpt>
      <trkpt lat="43.23133" lon="5.46326">
        <ele>364.48</ele>
        <time>2016-05-19T07:54:48Z</time>
      </trkpt>
      <trkpt lat="43.23125" lon="5.46316">
        <ele>358.23</ele>
        <time>2016-05-19T07:55:13Z</time>
      </trkpt>
      <trkpt lat="43.23112" lon="5.46303">
        <ele>356.79</ele>
        <time>2016-05-19T07:55:38Z</time>
      </trkpt>
      <trkpt lat="43.23097" lon="5.46277">
        <ele>356.31</ele>
        <time>2016-05-19T07:56:03Z</time>
      </trkpt>
      <trkpt lat="43.23082" lon="5.46256">
        <ele>358.23</ele>
        <time>2016-05-19T07:56:28Z</time>
      </trkpt>
      <trkpt lat="43.23066" lon="5.46241">
        <ele>359.19</ele>
        <time>2016-05-19T07:56:53Z</time>
      </trkpt>
      <trkpt lat="43.2306" lon="5.46232">
        <ele>363.04</ele>
        <time>2016-05-19T07:57:18Z</time>
      </trkpt>
      <trkpt lat="43.23057" lon="5.46228">
        <ele>364.48</ele>
        <time>2016-05-19T07:57:43Z</time>
      </trkpt>
      <trkpt lat="43.23045" lon="5.46218">
        <ele>365.92</ele>
        <time>2016-05-19T07:58:08Z</time>
      </trkpt>
      <trkpt lat="43.23038" lon="5.46195">
        <ele>370.24</ele>
        <time>2016-05-19T07:58:33Z</time>
      </trkpt>
      <trkpt lat="43.23023" lon="5.46181">
        <ele>376.97</ele>
        <time>2016-05-19T07:58:58Z</time>
      </trkpt>
      <trkpt lat="43.23013" lon="5.46152">
        <ele>374.57</ele>
        <time>2016-05-19T07:59:23Z</time>
      </trkpt>
      <trkpt lat="43.22998" lon="5.46121">
        <ele>371.69</ele>
        <time>2016-05-19T07:59:48Z</time>
      </trkpt>
      <trkpt lat="43.22988" lon="5.46089">
        <ele>372.65</ele>
        <time>2016-05-19T08:00:13Z</time>
      </trkpt>
      <trkpt lat="43.2298" lon="5.46053">
        <ele>374.57</ele>
        <time>2016-05-19T08:00:38Z</time>
      </trkpt>
      <trkpt lat="43.22967" lon="5.46019">
        <ele>376.97</ele>
        <time>2016-05-19T08:01:03Z</time>
      </trkpt>
      <trkpt lat="43.22958" lon="5.46007">
        <ele>376.49</ele>
        <time>2016-05-19T08:01:28Z</time>
      </trkpt>
      <trkpt lat="43.22938" lon="5.45981">
        <ele>373.61</ele>
        <time>2016-05-19T08:01:53Z</time>
      </trkpt>
      <trkpt lat="43.22919" lon="5.45958">
        <ele>371.69</ele>
        <time>2016-05-19T08:02:18Z</time>
      </trkpt>
      <trkpt lat="43.22901" lon="5.45929">
        <ele>374.57</ele>
        <time>2016-05-19T08:02:43Z</time>
      </trkpt>
      <trkpt lat="43.22912" lon="5.45892">
        <ele>374.57</ele>
        <time>2016-05-19T08:03:08Z</time>
      </trkpt>
      <trkpt lat="43.22928" lon="5.45858">
        <ele>373.61</ele>
        <time>2016-05-19T08:03:33Z</time>
      </trkpt>
      <trkpt lat="43.22927" lon="5.45826">
        <ele>376.97</ele>
        <time>2016-05-19T08:03:58Z</time>
      </trkpt>
      <trkpt lat="43.22906" lon="5.45796">
        <ele>376.97</ele>
        <time>2016-05-19T08:04:23Z</time>
      </trkpt>
      <trkpt lat="43.22898" lon="5.45761">
        <ele>377.45</ele>
        <time>2016-05-19T08:04:48Z</time>
      </trkpt>
      <trkpt lat="43.22886" lon="5.45726">
        <ele>378.9</ele>
        <time>2016-05-19T08:05:13Z</time>
      </trkpt>
      <trkpt lat="43.22881" lon="5.45692">
        <ele>379.38</ele>
        <time>2016-05-19T08:05:38Z</time>
      </trkpt>
      <trkpt lat="43.2288" lon="5.45661">
        <ele>383.22</ele>
        <time>2016-05-19T08:06:03Z</time>
      </trkpt>
      <trkpt lat="43.22877" lon="5.45628">
        <ele>386.59</ele>
        <time>2016-05-19T08:06:28Z</time>
      </trkpt>
      <trkpt lat="43.22862" lon="5.45593">
        <ele>385.63</ele>
        <time>2016-05-19T08:06:53Z</time>
      </trkpt>
      <trkpt lat="43.22852" lon="5.45555">
        <ele>389.47</ele>
        <time>2016-05-19T08:07:18Z</time>
      </trkpt>
      <trkpt lat="43.22832" lon="5.45528">
        <ele>388.03</ele>
        <time>2016-05-19T08:07:43Z</time>
      </trkpt>
      <trkpt lat="43.22811" lon="5.45505">
        <ele>385.63</ele>
        <time>2016-05-19T08:08:08Z</time>
      </trkpt>
      <trkpt lat="43.22785" lon="5.45494">
        <ele>383.22</ele>
        <time>2016-05-19T08:08:33Z</time>
      </trkpt>
      <trkpt lat="43.22758" lon="5.45504">
        <ele>377.94</ele>
        <time>2016-05-19T08:08:58Z</time>
      </trkpt>
      <trkpt lat="43.22733" lon="5.45522">
        <ele>375.53</ele>
        <time>2016-05-19T08:09:23Z</time>
      </trkpt>
      <trkpt lat="43.22715" lon="5.45497">
        <ele>372.65</ele>
        <time>2016-05-19T08:09:48Z</time>
      </trkpt>
      <trkpt lat="43.22711" lon="5.45475">
        <ele>371.69</ele>
        <time>2016-05-19T08:10:13Z</time>
      </trkpt>
      <trkpt lat="43.22702" lon="5.45453">
        <ele>373.61</ele>
        <time>2016-05-19T08:10:38Z</time>
      </trkpt>
      <trkpt lat="43.22689" lon="5.45444">
        <ele>372.65</ele>
        <time>2016-05-19T08:11:03Z</time>
      </trkpt>
      <trkpt lat="43.2267" lon="5.45446">
        <ele>371.69</ele>
        <time>2016-05-19T08:11:28Z</time>
      </trkpt>
      <trkpt lat="43.22643" lon="5.45444">
        <ele>369.28</ele>
        <time>2016-05-19T08:11:53Z</time>
      </trkpt>
      <trkpt lat="43.2262" lon="5.45418">
        <ele>369.28</ele>
        <time>2016-05-19T08:12:18Z</time>
      </trkpt>
      <trkpt lat="43.22591" lon="5.45406">
        <ele>367.36</ele>
        <time>2016-05-19T08:12:43Z</time>
      </trkpt>
      <trkpt lat="43.22577" lon="5.4538">
        <ele>367.36</ele>
        <time>2016-05-19T08:13:08Z</time>
      </trkpt>
      <trkpt lat="43.22569" lon="5.45352">
        <ele>368.8</ele>
        <time>2016-05-19T08:13:33Z</time>
      </trkpt>
      <trkpt lat="43.22569" lon="5.45352">
        <ele>368.8</ele>
        <time>2016-05-19T08:13:58Z</time>
      </trkpt>
      <trkpt lat="43.22569" lon="5.45352">
        <ele>367.36</ele>
        <time>2016-05-19T08:14:23Z</time>
      </trkpt>
      <trkpt lat="43.22569" lon="5.45355">
        <ele>367.84</ele>
        <time>2016-05-19T08:14:48Z</time>
      </trkpt>
      <trkpt lat="43.22568" lon="5.45354">
        <ele>367.84</ele>
        <time>2016-05-19T08:15:13Z</time>
      </trkpt>
      <trkpt lat="43.22568" lon="5.45352">
        <ele>367.84</ele>
        <time>2016-05-19T08:15:38Z</time>
      </trkpt>
      <trkpt lat="43.22556" lon="5.45318">
        <ele>369.28</ele>
        <time>2016-05-19T08:16:03Z</time>
      </trkpt>
      <trkpt lat="43.22557" lon="5.45278">
        <ele>369.76</ele>
        <time>2016-05-19T08:16:28Z</time>
      </trkpt>
      <trkpt lat="43.22567" lon="5.45244">
        <ele>371.21</ele>
        <time>2016-05-19T08:16:53Z</time>
      </trkpt>
      <trkpt lat="43.22561" lon="5.45212">
        <ele>374.57</ele>
        <time>2016-05-19T08:17:18Z</time>
      </trkpt>
      <trkpt lat="43.22542" lon="5.45182">
        <ele>376.49</ele>
        <time>2016-05-19T08:17:43Z</time>
      </trkpt>
      <trkpt lat="43.22528" lon="5.45164">
        <ele>375.05</ele>
        <time>2016-05-19T08:18:08Z</time>
      </trkpt>
      <trkpt lat="43.22501" lon="5.45161">
        <ele>373.13</ele>
        <time>2016-05-19T08:18:33Z</time>
      </trkpt>
      <trkpt lat="43.22475" lon="5.45155">
        <ele>369.76</ele>
        <time>2016-05-19T08:18:58Z</time>
      </trkpt>
      <trkpt lat="43.22448" lon="5.45159">
        <ele>367.84</ele>
        <time>2016-05-19T08:19:23Z</time>
      </trkpt>
      <trkpt lat="43.22427" lon="5.45137">
        <ele>366.4</ele>
        <time>2016-05-19T08:19:48Z</time>
      </trkpt>
      <trkpt lat="43.22409" lon="5.4511">
        <ele>367.36</ele>
        <time>2016-05-19T08:20:13Z</time>
      </trkpt>
      <trkpt lat="43.22389" lon="5.45085">
        <ele>366.4</ele>
        <time>2016-05-19T08:20:38Z</time>
      </trkpt>
      <trkpt lat="43.22365" lon="5.45077">
        <ele>363.52</ele>
        <time>2016-05-19T08:21:03Z</time>
      </trkpt>
      <trkpt lat="43.22339" lon="5.45078">
        <ele>355.34</ele>
        <time>2016-05-19T08:21:28Z</time>
      </trkpt>
      <trkpt lat="43.22313" lon="5.45086">
        <ele>354.38</ele>
        <time>2016-05-19T08:21:53Z</time>
      </trkpt>
      <trkpt lat="43.22284" lon="5.45086">
        <ele>351.98</ele>
        <time>2016-05-19T08:22:18Z</time>
      </trkpt>
      <trkpt lat="43.22258" lon="5.45092">
        <ele>349.58</ele>
        <time>2016-05-19T08:22:43Z</time>
      </trkpt>
      <trkpt lat="43.22229" lon="5.45102">
        <ele>344.77</ele>
        <time>2016-05-19T08:23:08Z</time>
      </trkpt>
      <trkpt lat="43.22202" lon="5.45095">
        <ele>343.33</ele>
        <time>2016-05-19T08:23:33Z</time>
      </trkpt>
      <trkpt lat="43.22174" lon="5.45091">
        <ele>343.81</ele>
        <time>2016-05-19T08:23:58Z</time>
      </trkpt>
      <trkpt lat="43.22149" lon="5.4509">
        <ele>342.37</ele>
        <time>2016-05-19T08:24:23Z</time>
      </trkpt>
      <trkpt lat="43.2212" lon="5.45092">
        <ele>339.48</ele>
        <time>2016-05-19T08:24:48Z</time>
      </trkpt>
      <trkpt lat="43.22101" lon="5.45098">
        <ele>336.12</ele>
        <time>2016-05-19T08:25:13Z</time>
      </trkpt>
      <trkpt lat="43.22079" lon="5.45121">
        <ele>333.23</ele>
        <time>2016-05-19T08:25:38Z</time>
      </trkpt>
      <trkpt lat="43.2205" lon="5.4513">
        <ele>332.75</ele>
        <time>2016-05-19T08:26:03Z</time>
      </trkpt>
      <trkpt lat="43.22021" lon="5.45138">
        <ele>330.35</ele>
        <time>2016-05-19T08:26:28Z</time>
      </trkpt>
      <trkpt lat="43.21995" lon="5.45149">
        <ele>326.99</ele>
        <time>2016-05-19T08:26:53Z</time>
      </trkpt>
      <trkpt lat="43.21972" lon="5.45161">
        <ele>323.14</ele>
        <time>2016-05-19T08:27:18Z</time>
      </trkpt>
      <trkpt lat="43.21949" lon="5.45178">
        <ele>318.81</ele>
        <time>2016-05-19T08:27:43Z</time>
      </trkpt>
      <trkpt lat="43.21925" lon="5.45187">
        <ele>316.41</ele>
        <time>2016-05-19T08:28:08Z</time>
      </trkpt>
      <trkpt lat="43.21898" lon="5.45202">
        <ele>314.49</ele>
        <time>2016-05-19T08:28:33Z</time>
      </trkpt>
      <trkpt lat="43.2188" lon="5.45229">
        <ele>313.53</ele>
        <time>2016-05-19T08:28:58Z</time>
      </trkpt>
      <trkpt lat="43.21884" lon="5.45264">
        <ele>313.53</ele>
        <time>2016-05-19T08:29:23Z</time>
      </trkpt>
      <trkpt lat="43.21899" lon="5.45298">
        <ele>316.41</ele>
        <time>2016-05-19T08:29:48Z</time>
      </trkpt>
      <trkpt lat="43.21916" lon="5.45328">
        <ele>316.89</ele>
        <time>2016-05-19T08:30:13Z</time>
      </trkpt>
      <trkpt lat="43.21913" lon="5.45333">
        <ele>315.45</ele>
        <time>2016-05-19T08:30:38Z</time>
      </trkpt>
      <trkpt lat="43.21913" lon="5.45345">
        <ele>314.97</ele>
        <time>2016-05-19T08:31:03Z</time>
      </trkpt>
      <trkpt lat="43.21912" lon="5.45374">
        <ele>310.64</ele>
        <time>2016-05-19T08:31:28Z</time>
      </trkpt>
      <trkpt lat="43.219" lon="5.45406">
        <ele>309.68</ele>
        <time>2016-05-19T08:31:53Z</time>
      </trkpt>
      <trkpt lat="43.21875" lon="5.45424">
        <ele>305.36</ele>
        <time>2016-05-19T08:32:18Z</time>
      </trkpt>
      <trkpt lat="43.21846" lon="5.45433">
        <ele>298.15</ele>
        <time>2016-05-19T08:32:43Z</time>
      </trkpt>
      <trkpt lat="43.21818" lon="5.45423">
        <ele>295.74</ele>
        <time>2016-05-19T08:33:08Z</time>
      </trkpt>
      <trkpt lat="43.21793" lon="5.45413">
        <ele>301.51</ele>
        <time>2016-05-19T08:33:33Z</time>
      </trkpt>
      <trkpt lat="43.21764" lon="5.45405">
        <ele>301.51</ele>
        <time>2016-05-19T08:34:00Z</time>
      </trkpt>
      <trkpt lat="43.21765" lon="5.45407">
        <ele>302.47</ele>
        <time>2016-05-19T08:34:25Z</time>
      </trkpt>
      <trkpt lat="43.21751" lon="5.45404">
        <ele>302.47</ele>
        <time>2016-05-19T08:34:50Z</time>
      </trkpt>
      <trkpt lat="43.21728" lon="5.45398">
        <ele>300.07</ele>
        <time>2016-05-19T08:35:15Z</time>
      </trkpt>
      <trkpt lat="43.21703" lon="5.45393">
        <ele>302.95</ele>
        <time>2016-05-19T08:35:40Z</time>
      </trkpt>
      <trkpt lat="43.21682" lon="5.45402">
        <ele>296.22</ele>
        <time>2016-05-19T08:36:05Z</time>
      </trkpt>
      <trkpt lat="43.21663" lon="5.45408">
        <ele>294.78</ele>
        <time>2016-05-19T08:36:30Z</time>
      </trkpt>
      <trkpt lat="43.21646" lon="5.45417">
        <ele>289.97</ele>
        <time>2016-05-19T08:36:55Z</time>
      </trkpt>
      <trkpt lat="43.2163" lon="5.45433">
        <ele>286.61</ele>
        <time>2016-05-19T08:37:20Z</time>
      </trkpt>
      <trkpt lat="43.21613" lon="5.45454">
        <ele>282.28</ele>
        <time>2016-05-19T08:37:45Z</time>
      </trkpt>
      <trkpt lat="43.21606" lon="5.45461">
        <ele>283.25</ele>
        <time>2016-05-19T08:38:10Z</time>
      </trkpt>
      <trkpt lat="43.21608" lon="5.45481">
        <ele>284.21</ele>
        <time>2016-05-19T08:38:35Z</time>
      </trkpt>
      <trkpt lat="43.21616" lon="5.455">
        <ele>284.21</ele>
        <time>2016-05-19T08:39:00Z</time>
      </trkpt>
      <trkpt lat="43.2162" lon="5.45531">
        <ele>283.25</ele>
        <time>2016-05-19T08:39:25Z</time>
      </trkpt>
      <trkpt lat="43.21632" lon="5.45558">
        <ele>291.9</ele>
        <time>2016-05-19T08:39:50Z</time>
      </trkpt>
      <trkpt lat="43.21633" lon="5.45573">
        <ele>294.78</ele>
        <time>2016-05-19T08:40:15Z</time>
      </trkpt>
      <trkpt lat="43.21643" lon="5.45598">
        <ele>296.22</ele>
        <time>2016-05-19T08:40:40Z</time>
      </trkpt>
      <trkpt lat="43.21643" lon="5.45608">
        <ele>300.07</ele>
        <time>2016-05-19T08:41:05Z</time>
      </trkpt>
      <trkpt lat="43.21641" lon="5.45606">
        <ele>300.07</ele>
        <time>2016-05-19T08:41:30Z</time>
      </trkpt>
      <trkpt lat="43.21641" lon="5.45608">
        <ele>297.67</ele>
        <time>2016-05-19T08:41:55Z</time>
      </trkpt>
      <trkpt lat="43.21642" lon="5.45606">
        <ele>295.26</ele>
        <time>2016-05-19T08:42:20Z</time>
      </trkpt>
      <trkpt lat="43.21648" lon="5.45628">
        <ele>301.51</ele>
        <time>2016-05-19T08:42:45Z</time>
      </trkpt>
      <trkpt lat="43.21649" lon="5.45644">
        <ele>301.51</ele>
        <time>2016-05-19T08:43:10Z</time>
      </trkpt>
      <trkpt lat="43.21657" lon="5.45665">
        <ele>302.47</ele>
        <time>2016-05-19T08:43:35Z</time>
      </trkpt>
      <trkpt lat="43.2167" lon="5.4569">
        <ele>306.32</ele>
        <time>2016-05-19T08:44:00Z</time>
      </trkpt>
      <trkpt lat="43.21685" lon="5.45709">
        <ele>308.24</ele>
        <time>2016-05-19T08:44:25Z</time>
      </trkpt>
      <trkpt lat="43.21699" lon="5.45732">
        <ele>310.64</ele>
        <time>2016-05-19T08:44:50Z</time>
      </trkpt>
      <trkpt lat="43.21709" lon="5.45745">
        <ele>313.05</ele>
        <time>2016-05-19T08:45:15Z</time>
      </trkpt>
      <trkpt lat="43.21716" lon="5.45759">
        <ele>316.89</ele>
        <time>2016-05-19T08:45:40Z</time>
      </trkpt>
      <trkpt lat="43.2172" lon="5.45769">
        <ele>321.7</ele>
        <time>2016-05-19T08:46:05Z</time>
      </trkpt>
      <trkpt lat="43.21721" lon="5.45781">
        <ele>322.66</ele>
        <time>2016-05-19T08:46:30Z</time>
      </trkpt>
      <trkpt lat="43.21722" lon="5.45779">
        <ele>324.1</ele>
        <time>2016-05-19T08:46:55Z</time>
      </trkpt>
      <trkpt lat="43.21719" lon="5.45779">
        <ele>322.18</ele>
        <time>2016-05-19T08:47:20Z</time>
      </trkpt>
      <trkpt lat="43.21717" lon="5.45778">
        <ele>321.7</ele>
        <time>2016-05-19T08:47:45Z</time>
      </trkpt>
      <trkpt lat="43.21716" lon="5.45775">
        <ele>321.7</ele>
        <time>2016-05-19T08:48:10Z</time>
      </trkpt>
      <trkpt lat="43.21715" lon="5.45774">
        <ele>324.58</ele>
        <time>2016-05-19T08:48:36Z</time>
      </trkpt>
      <trkpt lat="43.21728" lon="5.45783">
        <ele>325.54</ele>
        <time>2016-05-19T08:49:01Z</time>
      </trkpt>
      <trkpt lat="43.21731" lon="5.45785">
        <ele>327.95</ele>
        <time>2016-05-19T08:49:26Z</time>
      </trkpt>
      <trkpt lat="43.2174" lon="5.45785">
        <ele>333.23</ele>
        <time>2016-05-19T08:49:51Z</time>
      </trkpt>
      <trkpt lat="43.21747" lon="5.45785">
        <ele>337.08</ele>
        <time>2016-05-19T08:50:16Z</time>
      </trkpt>
      <trkpt lat="43.21753" lon="5.45785">
        <ele>341.41</ele>
        <time>2016-05-19T08:50:41Z</time>
      </trkpt>
      <trkpt lat="43.21761" lon="5.4578">
        <ele>345.25</ele>
        <time>2016-05-19T08:51:06Z</time>
      </trkpt>
      <trkpt lat="43.21766" lon="5.4577">
        <ele>347.65</ele>
        <time>2016-05-19T08:51:31Z</time>
      </trkpt>
      <trkpt lat="43.21766" lon="5.45773">
        <ele>350.06</ele>
        <time>2016-05-19T08:51:56Z</time>
      </trkpt>
      <trkpt lat="43.21772" lon="5.45773">
        <ele>353.42</ele>
        <time>2016-05-19T08:52:21Z</time>
      </trkpt>
      <trkpt lat="43.21778" lon="5.45777">
        <ele>358.71</ele>
        <time>2016-05-19T08:52:47Z</time>
      </trkpt>
      <trkpt lat="43.2178" lon="5.45778">
        <ele>365.92</ele>
        <time>2016-05-19T08:53:12Z</time>
      </trkpt>
      <trkpt lat="43.21787" lon="5.45779">
        <ele>370.73</ele>
        <time>2016-05-19T08:53:37Z</time>
      </trkpt>
      <trkpt lat="43.21796" lon="5.45786">
        <ele>371.21</ele>
        <time>2016-05-19T08:54:02Z</time>
      </trkpt>
      <trkpt lat="43.21801" lon="5.45791">
        <ele>375.05</ele>
        <time>2016-05-19T08:54:27Z</time>
      </trkpt>
      <trkpt lat="43.21809" lon="5.45788">
        <ele>380.82</ele>
        <time>2016-05-19T08:54:52Z</time>
      </trkpt>
      <trkpt lat="43.21813" lon="5.45796">
        <ele>388.03</ele>
        <time>2016-05-19T08:55:17Z</time>
      </trkpt>
      <trkpt lat="43.21817" lon="5.458">
        <ele>389.47</ele>
        <time>2016-05-19T08:55:42Z</time>
      </trkpt>
      <trkpt lat="43.21819" lon="5.45799">
        <ele>392.84</ele>
        <time>2016-05-19T08:56:07Z</time>
      </trkpt>
      <trkpt lat="43.21811" lon="5.45808">
        <ele>391.87</ele>
        <time>2016-05-19T08:56:32Z</time>
      </trkpt>
      <trkpt lat="43.21794" lon="5.4581">
        <ele>389.95</ele>
        <time>2016-05-19T08:56:57Z</time>
      </trkpt>
      <trkpt lat="43.21787" lon="5.45823">
        <ele>388.51</ele>
        <time>2016-05-19T08:57:22Z</time>
      </trkpt>
      <trkpt lat="43.21788" lon="5.45842">
        <ele>385.63</ele>
        <time>2016-05-19T08:57:47Z</time>
      </trkpt>
      <trkpt lat="43.21793" lon="5.45858">
        <ele>381.78</ele>
        <time>2016-05-19T08:58:12Z</time>
      </trkpt>
      <trkpt lat="43.21783" lon="5.45871">
        <ele>380.82</ele>
        <time>2016-05-19T08:58:37Z</time>
      </trkpt>
      <trkpt lat="43.21762" lon="5.45877">
        <ele>378.9</ele>
        <time>2016-05-19T08:59:02Z</time>
      </trkpt>
      <trkpt lat="43.2174" lon="5.45886">
        <ele>375.05</ele>
        <time>2016-05-19T08:59:27Z</time>
      </trkpt>
      <trkpt lat="43.21721" lon="5.45892">
        <ele>371.69</ele>
        <time>2016-05-19T08:59:52Z</time>
      </trkpt>
      <trkpt lat="43.21695" lon="5.45895">
        <ele>375.05</ele>
        <time>2016-05-19T09:00:17Z</time>
      </trkpt>
      <trkpt lat="43.21686" lon="5.45928">
        <ele>370.24</ele>
        <time>2016-05-19T09:00:42Z</time>
      </trkpt>
      <trkpt lat="43.21684" lon="5.45957">
        <ele>365.92</ele>
        <time>2016-05-19T09:01:07Z</time>
      </trkpt>
      <trkpt lat="43.21682" lon="5.45973">
        <ele>362.55</ele>
        <time>2016-05-19T09:01:32Z</time>
      </trkpt>
      <trkpt lat="43.21692" lon="5.46002">
        <ele>360.63</ele>
        <time>2016-05-19T09:01:57Z</time>
      </trkpt>
      <trkpt lat="43.21705" lon="5.46027">
        <ele>359.19</ele>
        <time>2016-05-19T09:02:22Z</time>
      </trkpt>
      <trkpt lat="43.21691" lon="5.4605">
        <ele>357.27</ele>
        <time>2016-05-19T09:02:47Z</time>
      </trkpt>
      <trkpt lat="43.21669" lon="5.46064">
        <ele>352.94</ele>
        <time>2016-05-19T09:03:12Z</time>
      </trkpt>
      <trkpt lat="43.21643" lon="5.4606">
        <ele>356.79</ele>
        <time>2016-05-19T09:03:37Z</time>
      </trkpt>
      <trkpt lat="43.21623" lon="5.46051">
        <ele>360.63</ele>
        <time>2016-05-19T09:04:02Z</time>
      </trkpt>
      <trkpt lat="43.21605" lon="5.46066">
        <ele>357.27</ele>
        <time>2016-05-19T09:04:27Z</time>
      </trkpt>
      <trkpt lat="43.21582" lon="5.46064">
        <ele>361.59</ele>
        <time>2016-05-19T09:04:52Z</time>
      </trkpt>
      <trkpt lat="43.21564" lon="5.46058">
        <ele>355.34</ele>
        <time>2016-05-19T09:05:17Z</time>
      </trkpt>
      <trkpt lat="43.21541" lon="5.4605">
        <ele>356.79</ele>
        <time>2016-05-19T09:05:42Z</time>
      </trkpt>
      <trkpt lat="43.21532" lon="5.46067">
        <ele>357.75</ele>
        <time>2016-05-19T09:06:07Z</time>
      </trkpt>
      <trkpt lat="43.21526" lon="5.46096">
        <ele>354.38</ele>
        <time>2016-05-19T09:06:32Z</time>
      </trkpt>
      <trkpt lat="43.21526" lon="5.4613">
        <ele>351.5</ele>
        <time>2016-05-19T09:06:57Z</time>
      </trkpt>
      <trkpt lat="43.21517" lon="5.46157">
        <ele>353.42</ele>
        <time>2016-05-19T09:07:22Z</time>
      </trkpt>
      <trkpt lat="43.21503" lon="5.4617">
        <ele>354.86</ele>
        <time>2016-05-19T09:07:47Z</time>
      </trkpt>
      <trkpt lat="43.21483" lon="5.46182">
        <ele>353.42</ele>
        <time>2016-05-19T09:08:12Z</time>
      </trkpt>
      <trkpt lat="43.21461" lon="5.46193">
        <ele>353.42</ele>
        <time>2016-05-19T09:08:37Z</time>
      </trkpt>
      <trkpt lat="43.21444" lon="5.46207">
        <ele>351.98</ele>
        <time>2016-05-19T09:09:02Z</time>
      </trkpt>
      <trkpt lat="43.21439" lon="5.46231">
        <ele>351.98</ele>
        <time>2016-05-19T09:09:27Z</time>
      </trkpt>
      <trkpt lat="43.21439" lon="5.46266">
        <ele>354.38</ele>
        <time>2016-05-19T09:09:52Z</time>
      </trkpt>
      <trkpt lat="43.21443" lon="5.46296">
        <ele>357.75</ele>
        <time>2016-05-19T09:10:17Z</time>
      </trkpt>
      <trkpt lat="43.21456" lon="5.46319">
        <ele>358.23</ele>
        <time>2016-05-19T09:10:42Z</time>
      </trkpt>
      <trkpt lat="43.21473" lon="5.46335">
        <ele>361.11</ele>
        <time>2016-05-19T09:11:07Z</time>
      </trkpt>
      <trkpt lat="43.21459" lon="5.46358">
        <ele>360.15</ele>
        <time>2016-05-19T09:11:32Z</time>
      </trkpt>
      <trkpt lat="43.2145" lon="5.46381">
        <ele>365.44</ele>
        <time>2016-05-19T09:11:57Z</time>
      </trkpt>
      <trkpt lat="43.21445" lon="5.46402">
        <ele>365.92</ele>
        <time>2016-05-19T09:12:22Z</time>
      </trkpt>
      <trkpt lat="43.21455" lon="5.46426">
        <ele>367.84</ele>
        <time>2016-05-19T09:12:47Z</time>
      </trkpt>
      <trkpt lat="43.21468" lon="5.46443">
        <ele>372.17</ele>
        <time>2016-05-19T09:13:12Z</time>
      </trkpt>
      <trkpt lat="43.2146" lon="5.46468">
        <ele>373.61</ele>
        <time>2016-05-19T09:13:37Z</time>
      </trkpt>
      <trkpt lat="43.21441" lon="5.46479">
        <ele>376.01</ele>
        <time>2016-05-19T09:14:02Z</time>
      </trkpt>
      <trkpt lat="43.21435" lon="5.46492">
        <ele>376.97</ele>
        <time>2016-05-19T09:14:27Z</time>
      </trkpt>
      <trkpt lat="43.21429" lon="5.465">
        <ele>383.7</ele>
        <time>2016-05-19T09:14:52Z</time>
      </trkpt>
      <trkpt lat="43.21421" lon="5.46509">
        <ele>386.59</ele>
        <time>2016-05-19T09:15:17Z</time>
      </trkpt>
      <trkpt lat="43.2141" lon="5.46515">
        <ele>391.87</ele>
        <time>2016-05-19T09:15:42Z</time>
      </trkpt>
      <trkpt lat="43.21398" lon="5.46516">
        <ele>393.32</ele>
        <time>2016-05-19T09:16:07Z</time>
      </trkpt>
      <trkpt lat="43.21385" lon="5.46515">
        <ele>396.2</ele>
        <time>2016-05-19T09:16:32Z</time>
      </trkpt>
      <trkpt lat="43.21374" lon="5.46523">
        <ele>400.05</ele>
        <time>2016-05-19T09:16:57Z</time>
      </trkpt>
      <trkpt lat="43.2137" lon="5.4653">
        <ele>406.29</ele>
        <time>2016-05-19T09:17:22Z</time>
      </trkpt>
      <trkpt lat="43.21355" lon="5.46524">
        <ele>409.18</ele>
        <time>2016-05-19T09:17:47Z</time>
      </trkpt>
      <trkpt lat="43.21348" lon="5.46546">
        <ele>411.1</ele>
        <time>2016-05-19T09:18:12Z</time>
      </trkpt>
      <trkpt lat="43.2134" lon="5.46564">
        <ele>416.87</ele>
        <time>2016-05-19T09:18:37Z</time>
      </trkpt>
      <trkpt lat="43.21324" lon="5.46578">
        <ele>420.71</ele>
        <time>2016-05-19T09:19:02Z</time>
      </trkpt>
      <trkpt lat="43.21307" lon="5.4658">
        <ele>421.19</ele>
        <time>2016-05-19T09:19:27Z</time>
      </trkpt>
      <trkpt lat="43.21303" lon="5.46598">
        <ele>425.52</ele>
        <time>2016-05-19T09:19:52Z</time>
      </trkpt>
      <trkpt lat="43.21298" lon="5.46599">
        <ele>425.52</ele>
        <time>2016-05-19T09:20:17Z</time>
      </trkpt>
      <trkpt lat="43.21297" lon="5.46599">
        <ele>423.6</ele>
        <time>2016-05-19T09:20:42Z</time>
      </trkpt>
      <trkpt lat="43.21308" lon="5.46605">
        <ele>423.6</ele>
        <time>2016-05-19T09:21:07Z</time>
      </trkpt>
      <trkpt lat="43.21317" lon="5.4661">
        <ele>426.96</ele>
        <time>2016-05-19T09:21:32Z</time>
      </trkpt>
      <trkpt lat="43.21333" lon="5.466">
        <ele>426</ele>
        <time>2016-05-19T09:21:58Z</time>
      </trkpt>
      <trkpt lat="43.21351" lon="5.46611">
        <ele>429.37</ele>
        <time>2016-05-19T09:22:23Z</time>
      </trkpt>
      <trkpt lat="43.2137" lon="5.46619">
        <ele>429.85</ele>
        <time>2016-05-19T09:22:48Z</time>
      </trkpt>
      <trkpt lat="43.2139" lon="5.46611">
        <ele>432.25</ele>
        <time>2016-05-19T09:23:13Z</time>
      </trkpt>
      <trkpt lat="43.2141" lon="5.46609">
        <ele>433.21</ele>
        <time>2016-05-19T09:23:38Z</time>
      </trkpt>
      <trkpt lat="43.21417" lon="5.46615">
        <ele>428.4</ele>
        <time>2016-05-19T09:24:04Z</time>
      </trkpt>
      <trkpt lat="43.21433" lon="5.46624">
        <ele>425.04</ele>
        <time>2016-05-19T09:24:29Z</time>
      </trkpt>
      <trkpt lat="43.21449" lon="5.46638">
        <ele>423.12</ele>
        <time>2016-05-19T09:24:54Z</time>
      </trkpt>
      <trkpt lat="43.21461" lon="5.46653">
        <ele>416.87</ele>
        <time>2016-05-19T09:25:19Z</time>
      </trkpt>
      <trkpt lat="43.21481" lon="5.46656">
        <ele>414.47</ele>
        <time>2016-05-19T09:25:44Z</time>
      </trkpt>
      <trkpt lat="43.21503" lon="5.46649">
        <ele>416.39</ele>
        <time>2016-05-19T09:26:09Z</time>
      </trkpt>
      <trkpt lat="43.21527" lon="5.4665">
        <ele>414.47</ele>
        <time>2016-05-19T09:26:34Z</time>
      </trkpt>
      <trkpt lat="43.21546" lon="5.4666">
        <ele>409.18</ele>
        <time>2016-05-19T09:26:59Z</time>
      </trkpt>
      <trkpt lat="43.21561" lon="5.46665">
        <ele>406.29</ele>
        <time>2016-05-19T09:27:24Z</time>
      </trkpt>
      <trkpt lat="43.2158" lon="5.4667">
        <ele>400.53</ele>
        <time>2016-05-19T09:27:49Z</time>
      </trkpt>
      <trkpt lat="43.21579" lon="5.46691">
        <ele>398.6</ele>
        <time>2016-05-19T09:28:14Z</time>
      </trkpt>
      <trkpt lat="43.2157" lon="5.46714">
        <ele>401.49</ele>
        <time>2016-05-19T09:28:39Z</time>
      </trkpt>
      <trkpt lat="43.21556" lon="5.46729">
        <ele>402.93</ele>
        <time>2016-05-19T09:29:04Z</time>
      </trkpt>
      <trkpt lat="43.21535" lon="5.46751">
        <ele>399.08</ele>
        <time>2016-05-19T09:29:29Z</time>
      </trkpt>
      <trkpt lat="43.21514" lon="5.46766">
        <ele>400.05</ele>
        <time>2016-05-19T09:29:54Z</time>
      </trkpt>
      <trkpt lat="43.21501" lon="5.46787">
        <ele>396.2</ele>
        <time>2016-05-19T09:30:19Z</time>
      </trkpt>
      <trkpt lat="43.21482" lon="5.46798">
        <ele>399.08</ele>
        <time>2016-05-19T09:30:44Z</time>
      </trkpt>
      <trkpt lat="43.2146" lon="5.46801">
        <ele>400.05</ele>
        <time>2016-05-19T09:31:09Z</time>
      </trkpt>
      <trkpt lat="43.21448" lon="5.46821">
        <ele>401.01</ele>
        <time>2016-05-19T09:31:34Z</time>
      </trkpt>
      <trkpt lat="43.2143" lon="5.46844">
        <ele>400.53</ele>
        <time>2016-05-19T09:31:59Z</time>
      </trkpt>
      <trkpt lat="43.2141" lon="5.46862">
        <ele>399.08</ele>
        <time>2016-05-19T09:32:24Z</time>
      </trkpt>
      <trkpt lat="43.21397" lon="5.46879">
        <ele>395.24</ele>
        <time>2016-05-19T09:32:49Z</time>
      </trkpt>
      <trkpt lat="43.21392" lon="5.46906">
        <ele>394.28</ele>
        <time>2016-05-19T09:33:14Z</time>
      </trkpt>
      <trkpt lat="43.21384" lon="5.46919">
        <ele>387.55</ele>
        <time>2016-05-19T09:33:39Z</time>
      </trkpt>
      <trkpt lat="43.21376" lon="5.46938">
        <ele>382.26</ele>
        <time>2016-05-19T09:34:04Z</time>
      </trkpt>
      <trkpt lat="43.21368" lon="5.46952">
        <ele>379.38</ele>
        <time>2016-05-19T09:34:29Z</time>
      </trkpt>
      <trkpt lat="43.21356" lon="5.46961">
        <ele>372.17</ele>
        <time>2016-05-19T09:34:54Z</time>
      </trkpt>
      <trkpt lat="43.21351" lon="5.46983">
        <ele>371.21</ele>
        <time>2016-05-19T09:35:19Z</time>
      </trkpt>
      <trkpt lat="43.21348" lon="5.47002">
        <ele>368.8</ele>
        <time>2016-05-19T09:35:44Z</time>
      </trkpt>
      <trkpt lat="43.21335" lon="5.47015">
        <ele>370.73</ele>
        <time>2016-05-19T09:36:09Z</time>
      </trkpt>
      <trkpt lat="43.21338" lon="5.47032">
        <ele>372.65</ele>
        <time>2016-05-19T09:36:34Z</time>
      </trkpt>
      <trkpt lat="43.21343" lon="5.47056">
        <ele>365.92</ele>
        <time>2016-05-19T09:36:59Z</time>
      </trkpt>
      <trkpt lat="43.21338" lon="5.47078">
        <ele>367.84</ele>
        <time>2016-05-19T09:37:24Z</time>
      </trkpt>
      <trkpt lat="43.21336" lon="5.47083">
        <ele>368.8</ele>
        <time>2016-05-19T09:37:49Z</time>
      </trkpt>
      <trkpt lat="43.21336" lon="5.47095">
        <ele>370.24</ele>
        <time>2016-05-19T09:38:14Z</time>
      </trkpt>
      <trkpt lat="43.21339" lon="5.47105">
        <ele>370.73</ele>
        <time>2016-05-19T09:38:39Z</time>
      </trkpt>
      <trkpt lat="43.21339" lon="5.47133">
        <ele>369.28</ele>
        <time>2016-05-19T09:39:04Z</time>
      </trkpt>
      <trkpt lat="43.21344" lon="5.47142">
        <ele>374.09</ele>
        <time>2016-05-19T09:39:29Z</time>
      </trkpt>
      <trkpt lat="43.21352" lon="5.47151">
        <ele>377.45</ele>
        <time>2016-05-19T09:39:54Z</time>
      </trkpt>
      <trkpt lat="43.21359" lon="5.47158">
        <ele>380.82</ele>
        <time>2016-05-19T09:40:19Z</time>
      </trkpt>
      <trkpt lat="43.21365" lon="5.47164">
        <ele>383.7</ele>
        <time>2016-05-19T09:40:44Z</time>
      </trkpt>
      <trkpt lat="43.21369" lon="5.47165">
        <ele>386.11</ele>
        <time>2016-05-19T09:41:09Z</time>
      </trkpt>
      <trkpt lat="43.21368" lon="5.47167">
        <ele>387.55</ele>
        <time>2016-05-19T09:41:34Z</time>
      </trkpt>
      <trkpt lat="43.21363" lon="5.47164">
        <ele>384.18</ele>
        <time>2016-05-19T09:41:59Z</time>
      </trkpt>
      <trkpt lat="43.21361" lon="5.47164">
        <ele>382.74</ele>
        <time>2016-05-19T09:42:24Z</time>
      </trkpt>
      <trkpt lat="43.21356" lon="5.47156">
        <ele>378.9</ele>
        <time>2016-05-19T09:42:49Z</time>
      </trkpt>
      <trkpt lat="43.21346" lon="5.47147">
        <ele>372.65</ele>
        <time>2016-05-19T09:43:14Z</time>
      </trkpt>
      <trkpt lat="43.21338" lon="5.47146">
        <ele>371.21</ele>
        <time>2016-05-19T09:43:39Z</time>
      </trkpt>
      <trkpt lat="43.21329" lon="5.4714">
        <ele>372.17</ele>
        <time>2016-05-19T09:44:04Z</time>
      </trkpt>
      <trkpt lat="43.21323" lon="5.47136">
        <ele>372.17</ele>
        <time>2016-05-19T09:44:29Z</time>
      </trkpt>
      <trkpt lat="43.21323" lon="5.47138">
        <ele>369.28</ele>
        <time>2016-05-19T09:44:54Z</time>
      </trkpt>
      <trkpt lat="43.21325" lon="5.47139">
        <ele>369.76</ele>
        <time>2016-05-19T09:45:19Z</time>
      </trkpt>
      <trkpt lat="43.21325" lon="5.47138">
        <ele>369.76</ele>
        <time>2016-05-19T09:45:44Z</time>
      </trkpt>
      <trkpt lat="43.21325" lon="5.47138">
        <ele>370.24</ele>
        <time>2016-05-19T09:46:09Z</time>
      </trkpt>
      <trkpt lat="43.21324" lon="5.47138">
        <ele>370.24</ele>
        <time>2016-05-19T09:46:34Z</time>
      </trkpt>
      <trkpt lat="43.21324" lon="5.47138">
        <ele>370.24</ele>
        <time>2016-05-19T09:46:59Z</time>
      </trkpt>
      <trkpt lat="43.21325" lon="5.47137">
        <ele>370.24</ele>
        <time>2016-05-19T09:47:24Z</time>
      </trkpt>
      <trkpt lat="43.21324" lon="5.47138">
        <ele>369.28</ele>
        <time>2016-05-19T09:47:49Z</time>
      </trkpt>
      <trkpt lat="43.21322" lon="5.47139">
        <ele>369.28</ele>
        <time>2016-05-19T09:48:14Z</time>
      </trkpt>
      <trkpt lat="43.21321" lon="5.47138">
        <ele>370.73</ele>
        <time>2016-05-19T09:48:39Z</time>
      </trkpt>
      <trkpt lat="43.21321" lon="5.47139">
        <ele>370.24</ele>
        <time>2016-05-19T09:49:04Z</time>
      </trkpt>
      <trkpt lat="43.21322" lon="5.47139">
        <ele>368.8</ele>
        <time>2016-05-19T09:49:29Z</time>
      </trkpt>
      <trkpt lat="43.21323" lon="5.47139">
        <ele>369.76</ele>
        <time>2016-05-19T09:49:54Z</time>
      </trkpt>
      <trkpt lat="43.21323" lon="5.47139">
        <ele>371.69</ele>
        <time>2016-05-19T09:50:19Z</time>
      </trkpt>
      <trkpt lat="43.21323" lon="5.4714">
        <ele>369.76</ele>
        <time>2016-05-19T09:50:44Z</time>
      </trkpt>
      <trkpt lat="43.21323" lon="5.47139">
        <ele>369.76</ele>
        <time>2016-05-19T09:51:09Z</time>
      </trkpt>
      <trkpt lat="43.21322" lon="5.47138">
        <ele>369.28</ele>
        <time>2016-05-19T09:51:34Z</time>
      </trkpt>
      <trkpt lat="43.21325" lon="5.47138">
        <ele>369.76</ele>
        <time>2016-05-19T09:51:59Z</time>
      </trkpt>
      <trkpt lat="43.21324" lon="5.47139">
        <ele>369.76</ele>
        <time>2016-05-19T09:52:24Z</time>
      </trkpt>
      <trkpt lat="43.21324" lon="5.47137">
        <ele>371.21</ele>
        <time>2016-05-19T09:52:49Z</time>
      </trkpt>
      <trkpt lat="43.21325" lon="5.47138">
        <ele>369.76</ele>
        <time>2016-05-19T09:53:14Z</time>
      </trkpt>
      <trkpt lat="43.21325" lon="5.47138">
        <ele>370.73</ele>
        <time>2016-05-19T09:53:39Z</time>
      </trkpt>
      <trkpt lat="43.21325" lon="5.47138">
        <ele>369.76</ele>
        <time>2016-05-19T09:54:04Z</time>
      </trkpt>
      <trkpt lat="43.21325" lon="5.47138">
        <ele>369.76</ele>
        <time>2016-05-19T09:54:29Z</time>
      </trkpt>
      <trkpt lat="43.21324" lon="5.47139">
        <ele>369.28</ele>
        <time>2016-05-19T09:54:54Z</time>
      </trkpt>
      <trkpt lat="43.21324" lon="5.47138">
        <ele>371.21</ele>
        <time>2016-05-19T09:55:19Z</time>
      </trkpt>
      <trkpt lat="43.21323" lon="5.47138">
        <ele>371.69</ele>
        <time>2016-05-19T09:55:44Z</time>
      </trkpt>
      <trkpt lat="43.21322" lon="5.47139">
        <ele>372.17</ele>
        <time>2016-05-19T09:56:09Z</time>
      </trkpt>
      <trkpt lat="43.21324" lon="5.47137">
        <ele>371.21</ele>
        <time>2016-05-19T09:56:34Z</time>
      </trkpt>
      <trkpt lat="43.21323" lon="5.47139">
        <ele>371.21</ele>
        <time>2016-05-19T09:56:59Z</time>
      </trkpt>
      <trkpt lat="43.21324" lon="5.47138">
        <ele>371.69</ele>
        <time>2016-05-19T09:57:24Z</time>
      </trkpt>
      <trkpt lat="43.21324" lon="5.47138">
        <ele>371.69</ele>
        <time>2016-05-19T09:57:49Z</time>
      </trkpt>
      <trkpt lat="43.21324" lon="5.47139">
        <ele>371.69</ele>
        <time>2016-05-19T09:58:14Z</time>
      </trkpt>
      <trkpt lat="43.21321" lon="5.4714">
        <ele>372.17</ele>
        <time>2016-05-19T09:58:39Z</time>
      </trkpt>
      <trkpt lat="43.21323" lon="5.47139">
        <ele>371.21</ele>
        <time>2016-05-19T09:59:04Z</time>
      </trkpt>
      <trkpt lat="43.21324" lon="5.47139">
        <ele>369.28</ele>
        <time>2016-05-19T09:59:29Z</time>
      </trkpt>
      <trkpt lat="43.21325" lon="5.47138">
        <ele>371.21</ele>
        <time>2016-05-19T09:59:54Z</time>
      </trkpt>
      <trkpt lat="43.21324" lon="5.4714">
        <ele>369.28</ele>
        <time>2016-05-19T10:00:19Z</time>
      </trkpt>
      <trkpt lat="43.21327" lon="5.47138">
        <ele>371.21</ele>
        <time>2016-05-19T10:00:44Z</time>
      </trkpt>
      <trkpt lat="43.21315" lon="5.47137">
        <ele>372.17</ele>
        <time>2016-05-19T10:01:09Z</time>
      </trkpt>
      <trkpt lat="43.21304" lon="5.47141">
        <ele>366.88</ele>
        <time>2016-05-19T10:01:34Z</time>
      </trkpt>
      <trkpt lat="43.21295" lon="5.47139">
        <ele>360.15</ele>
        <time>2016-05-19T10:01:59Z</time>
      </trkpt>
      <trkpt lat="43.21282" lon="5.47139">
        <ele>355.83</ele>
        <time>2016-05-19T10:02:24Z</time>
      </trkpt>
      <trkpt lat="43.21275" lon="5.47134">
        <ele>354.38</ele>
        <time>2016-05-19T10:02:49Z</time>
      </trkpt>
      <trkpt lat="43.21274" lon="5.47135">
        <ele>356.79</ele>
        <time>2016-05-19T10:03:14Z</time>
      </trkpt>
      <trkpt lat="43.21264" lon="5.47139">
        <ele>349.1</ele>
        <time>2016-05-19T10:03:39Z</time>
      </trkpt>
      <trkpt lat="43.21252" lon="5.47146">
        <ele>344.77</ele>
        <time>2016-05-19T10:04:04Z</time>
      </trkpt>
      <trkpt lat="43.21242" lon="5.47153">
        <ele>341.89</ele>
        <time>2016-05-19T10:04:29Z</time>
      </trkpt>
      <trkpt lat="43.21232" lon="5.47155">
        <ele>337.08</ele>
        <time>2016-05-19T10:04:54Z</time>
      </trkpt>
      <trkpt lat="43.2122" lon="5.47148">
        <ele>333.23</ele>
        <time>2016-05-19T10:05:19Z</time>
      </trkpt>
      <trkpt lat="43.21214" lon="5.47152">
        <ele>330.83</ele>
        <time>2016-05-19T10:05:44Z</time>
      </trkpt>
      <trkpt lat="43.2121" lon="5.47146">
        <ele>328.91</ele>
        <time>2016-05-19T10:06:09Z</time>
      </trkpt>
      <trkpt lat="43.21202" lon="5.47137">
        <ele>323.62</ele>
        <time>2016-05-19T10:06:34Z</time>
      </trkpt>
      <trkpt lat="43.21188" lon="5.47149">
        <ele>319.78</ele>
        <time>2016-05-19T10:06:59Z</time>
      </trkpt>
      <trkpt lat="43.21181" lon="5.47155">
        <ele>314.49</ele>
        <time>2016-05-19T10:07:24Z</time>
      </trkpt>
      <trkpt lat="43.21169" lon="5.47157">
        <ele>309.2</ele>
        <time>2016-05-19T10:07:49Z</time>
      </trkpt>
      <trkpt lat="43.21163" lon="5.47168">
        <ele>307.76</ele>
        <time>2016-05-19T10:08:14Z</time>
      </trkpt>
      <trkpt lat="43.21163" lon="5.47186">
        <ele>304.39</ele>
        <time>2016-05-19T10:08:39Z</time>
      </trkpt>
      <trkpt lat="43.21165" lon="5.47209">
        <ele>299.59</ele>
        <time>2016-05-19T10:09:04Z</time>
      </trkpt>
      <trkpt lat="43.21151" lon="5.47224">
        <ele>296.7</ele>
        <time>2016-05-19T10:09:29Z</time>
      </trkpt>
      <trkpt lat="43.21147" lon="5.47222">
        <ele>295.26</ele>
        <time>2016-05-19T10:09:54Z</time>
      </trkpt>
      <trkpt lat="43.21149" lon="5.47216">
        <ele>294.78</ele>
        <time>2016-05-19T10:10:19Z</time>
      </trkpt>
      <trkpt lat="43.2115" lon="5.47201">
        <ele>289.49</ele>
        <time>2016-05-19T10:10:44Z</time>
      </trkpt>
      <trkpt lat="43.21142" lon="5.47194">
        <ele>288.05</ele>
        <time>2016-05-19T10:11:09Z</time>
      </trkpt>
      <trkpt lat="43.21143" lon="5.47195">
        <ele>288.05</ele>
        <time>2016-05-19T10:11:34Z</time>
      </trkpt>
      <trkpt lat="43.21136" lon="5.47192">
        <ele>285.17</ele>
        <time>2016-05-19T10:11:59Z</time>
      </trkpt>
      <trkpt lat="43.21117" lon="5.47168">
        <ele>285.65</ele>
        <time>2016-05-19T10:12:24Z</time>
      </trkpt>
      <trkpt lat="43.21102" lon="5.47152">
        <ele>281.32</ele>
        <time>2016-05-19T10:12:49Z</time>
      </trkpt>
      <trkpt lat="43.21101" lon="5.47141">
        <ele>279.4</ele>
        <time>2016-05-19T10:13:14Z</time>
      </trkpt>
      <trkpt lat="43.21102" lon="5.47144">
        <ele>280.36</ele>
        <time>2016-05-19T10:13:39Z</time>
      </trkpt>
      <trkpt lat="43.21088" lon="5.47156">
        <ele>282.77</ele>
        <time>2016-05-19T10:14:04Z</time>
      </trkpt>
      <trkpt lat="43.21071" lon="5.47171">
        <ele>286.61</ele>
        <time>2016-05-19T10:14:29Z</time>
      </trkpt>
      <trkpt lat="43.21062" lon="5.47183">
        <ele>289.01</ele>
        <time>2016-05-19T10:14:54Z</time>
      </trkpt>
      <trkpt lat="43.21053" lon="5.47189">
        <ele>292.86</ele>
        <time>2016-05-19T10:15:19Z</time>
      </trkpt>
      <trkpt lat="43.21045" lon="5.47184">
        <ele>296.22</ele>
        <time>2016-05-19T10:15:44Z</time>
      </trkpt>
      <trkpt lat="43.21035" lon="5.47184">
        <ele>299.11</ele>
        <time>2016-05-19T10:16:09Z</time>
      </trkpt>
      <trkpt lat="43.21027" lon="5.47189">
        <ele>302.95</ele>
        <time>2016-05-19T10:16:34Z</time>
      </trkpt>
      <trkpt lat="43.21021" lon="5.47199">
        <ele>304.88</ele>
        <time>2016-05-19T10:16:59Z</time>
      </trkpt>
      <trkpt lat="43.21014" lon="5.47208">
        <ele>301.99</ele>
        <time>2016-05-19T10:17:24Z</time>
      </trkpt>
      <trkpt lat="43.21007" lon="5.47226">
        <ele>299.11</ele>
        <time>2016-05-19T10:17:49Z</time>
      </trkpt>
      <trkpt lat="43.20996" lon="5.47237">
        <ele>297.67</ele>
        <time>2016-05-19T10:18:14Z</time>
      </trkpt>
      <trkpt lat="43.20994" lon="5.47247">
        <ele>299.11</ele>
        <time>2016-05-19T10:18:39Z</time>
      </trkpt>
      <trkpt lat="43.20989" lon="5.47252">
        <ele>302.47</ele>
        <time>2016-05-19T10:19:04Z</time>
      </trkpt>
      <trkpt lat="43.20987" lon="5.47255">
        <ele>303.43</ele>
        <time>2016-05-19T10:19:29Z</time>
      </trkpt>
      <trkpt lat="43.20979" lon="5.47266">
        <ele>305.36</ele>
        <time>2016-05-19T10:19:54Z</time>
      </trkpt>
      <trkpt lat="43.20971" lon="5.47268">
        <ele>308.72</ele>
        <time>2016-05-19T10:20:19Z</time>
      </trkpt>
      <trkpt lat="43.20965" lon="5.47273">
        <ele>314.49</ele>
        <time>2016-05-19T10:20:44Z</time>
      </trkpt>
      <trkpt lat="43.20962" lon="5.47284">
        <ele>316.89</ele>
        <time>2016-05-19T10:21:09Z</time>
      </trkpt>
      <trkpt lat="43.20955" lon="5.47284">
        <ele>318.81</ele>
        <time>2016-05-19T10:21:34Z</time>
      </trkpt>
      <trkpt lat="43.20955" lon="5.47286">
        <ele>315.93</ele>
        <time>2016-05-19T10:21:59Z</time>
      </trkpt>
      <trkpt lat="43.20955" lon="5.47286">
        <ele>316.41</ele>
        <time>2016-05-19T10:22:24Z</time>
      </trkpt>
      <trkpt lat="43.20951" lon="5.47288">
        <ele>316.89</ele>
        <time>2016-05-19T10:22:49Z</time>
      </trkpt>
      <trkpt lat="43.20934" lon="5.4729">
        <ele>321.7</ele>
        <time>2016-05-19T10:23:14Z</time>
      </trkpt>
      <trkpt lat="43.20935" lon="5.47291">
        <ele>320.26</ele>
        <time>2016-05-19T10:23:39Z</time>
      </trkpt>
      <trkpt lat="43.2093" lon="5.47294">
        <ele>320.74</ele>
        <time>2016-05-19T10:24:04Z</time>
      </trkpt>
      <trkpt lat="43.20912" lon="5.47313">
        <ele>320.74</ele>
        <time>2016-05-19T10:24:29Z</time>
      </trkpt>
      <trkpt lat="43.20896" lon="5.47337">
        <ele>320.74</ele>
        <time>2016-05-19T10:24:54Z</time>
      </trkpt>
      <trkpt lat="43.2088" lon="5.47361">
        <ele>318.33</ele>
        <time>2016-05-19T10:25:19Z</time>
      </trkpt>
      <trkpt lat="43.20864" lon="5.47379">
        <ele>317.85</ele>
        <time>2016-05-19T10:25:44Z</time>
      </trkpt>
      <trkpt lat="43.20849" lon="5.47395">
        <ele>319.3</ele>
        <time>2016-05-19T10:26:09Z</time>
      </trkpt>
      <trkpt lat="43.20843" lon="5.47416">
        <ele>320.26</ele>
        <time>2016-05-19T10:26:34Z</time>
      </trkpt>
      <trkpt lat="43.20846" lon="5.47448">
        <ele>322.18</ele>
        <time>2016-05-19T10:26:59Z</time>
      </trkpt>
      <trkpt lat="43.20834" lon="5.47471">
        <ele>321.7</ele>
        <time>2016-05-19T10:27:24Z</time>
      </trkpt>
      <trkpt lat="43.20827" lon="5.47502">
        <ele>315.93</ele>
        <time>2016-05-19T10:27:49Z</time>
      </trkpt>
      <trkpt lat="43.20817" lon="5.47529">
        <ele>311.12</ele>
        <time>2016-05-19T10:28:14Z</time>
      </trkpt>
      <trkpt lat="43.20801" lon="5.47555">
        <ele>314.01</ele>
        <time>2016-05-19T10:28:39Z</time>
      </trkpt>
      <trkpt lat="43.20786" lon="5.4758">
        <ele>311.12</ele>
        <time>2016-05-19T10:29:04Z</time>
      </trkpt>
      <trkpt lat="43.20774" lon="5.47604">
        <ele>308.24</ele>
        <time>2016-05-19T10:29:29Z</time>
      </trkpt>
      <trkpt lat="43.20771" lon="5.47634">
        <ele>304.88</ele>
        <time>2016-05-19T10:29:54Z</time>
      </trkpt>
      <trkpt lat="43.20759" lon="5.47649">
        <ele>300.55</ele>
        <time>2016-05-19T10:30:19Z</time>
      </trkpt>
      <trkpt lat="43.20748" lon="5.47666">
        <ele>296.7</ele>
        <time>2016-05-19T10:30:44Z</time>
      </trkpt>
      <trkpt lat="43.20741" lon="5.47678">
        <ele>291.9</ele>
        <time>2016-05-19T10:31:09Z</time>
      </trkpt>
      <trkpt lat="43.20748" lon="5.47696">
        <ele>288.53</ele>
        <time>2016-05-19T10:31:34Z</time>
      </trkpt>
      <trkpt lat="43.2075" lon="5.47702">
        <ele>286.13</ele>
        <time>2016-05-19T10:31:59Z</time>
      </trkpt>
      <trkpt lat="43.20761" lon="5.47715">
        <ele>281.8</ele>
        <time>2016-05-19T10:32:24Z</time>
      </trkpt>
      <trkpt lat="43.20767" lon="5.47723">
        <ele>277</ele>
        <time>2016-05-19T10:32:49Z</time>
      </trkpt>
      <trkpt lat="43.20763" lon="5.47733">
        <ele>273.63</ele>
        <time>2016-05-19T10:33:14Z</time>
      </trkpt>
      <trkpt lat="43.20757" lon="5.47737">
        <ele>268.83</ele>
        <time>2016-05-19T10:33:39Z</time>
      </trkpt>
      <trkpt lat="43.20757" lon="5.47745">
        <ele>266.42</ele>
        <time>2016-05-19T10:34:04Z</time>
      </trkpt>
      <trkpt lat="43.20762" lon="5.47748">
        <ele>261.62</ele>
        <time>2016-05-19T10:34:29Z</time>
      </trkpt>
      <trkpt lat="43.20757" lon="5.4776">
        <ele>258.25</ele>
        <time>2016-05-19T10:34:54Z</time>
      </trkpt>
      <trkpt lat="43.20751" lon="5.47783">
        <ele>255.37</ele>
        <time>2016-05-19T10:35:19Z</time>
      </trkpt>
      <trkpt lat="43.20744" lon="5.478">
        <ele>250.08</ele>
        <time>2016-05-19T10:35:44Z</time>
      </trkpt>
      <trkpt lat="43.20733" lon="5.47824">
        <ele>247.2</ele>
        <time>2016-05-19T10:36:09Z</time>
      </trkpt>
      <trkpt lat="43.20724" lon="5.47845">
        <ele>245.75</ele>
        <time>2016-05-19T10:36:34Z</time>
      </trkpt>
      <trkpt lat="43.20721" lon="5.47874">
        <ele>241.91</ele>
        <time>2016-05-19T10:36:59Z</time>
      </trkpt>
      <trkpt lat="43.20727" lon="5.47894">
        <ele>236.14</ele>
        <time>2016-05-19T10:37:24Z</time>
      </trkpt>
      <trkpt lat="43.20737" lon="5.47905">
        <ele>230.37</ele>
        <time>2016-05-19T10:37:49Z</time>
      </trkpt>
      <trkpt lat="43.20741" lon="5.47918">
        <ele>225.09</ele>
        <time>2016-05-19T10:38:14Z</time>
      </trkpt>
      <trkpt lat="43.20748" lon="5.47918">
        <ele>221.72</ele>
        <time>2016-05-19T10:38:39Z</time>
      </trkpt>
      <trkpt lat="43.20751" lon="5.47936">
        <ele>217.4</ele>
        <time>2016-05-19T10:39:04Z</time>
      </trkpt>
      <trkpt lat="43.20753" lon="5.47947">
        <ele>215.47</ele>
        <time>2016-05-19T10:39:29Z</time>
      </trkpt>
      <trkpt lat="43.20755" lon="5.47975">
        <ele>213.07</ele>
        <time>2016-05-19T10:39:54Z</time>
      </trkpt>
      <trkpt lat="43.20756" lon="5.47998">
        <ele>206.82</ele>
        <time>2016-05-19T10:40:19Z</time>
      </trkpt>
      <trkpt lat="43.20763" lon="5.48025">
        <ele>202.98</ele>
        <time>2016-05-19T10:40:44Z</time>
      </trkpt>
      <trkpt lat="43.20765" lon="5.48054">
        <ele>199.13</ele>
        <time>2016-05-19T10:41:09Z</time>
      </trkpt>
      <trkpt lat="43.2077" lon="5.48053">
        <ele>195.28</ele>
        <time>2016-05-19T10:41:34Z</time>
      </trkpt>
      <trkpt lat="43.20778" lon="5.48051">
        <ele>190.48</ele>
        <time>2016-05-19T10:41:59Z</time>
      </trkpt>
      <trkpt lat="43.20784" lon="5.48036">
        <ele>185.67</ele>
        <time>2016-05-19T10:42:24Z</time>
      </trkpt>
      <trkpt lat="43.20806" lon="5.48029">
        <ele>190</ele>
        <time>2016-05-19T10:42:49Z</time>
      </trkpt>
      <trkpt lat="43.20818" lon="5.48053">
        <ele>193.84</ele>
        <time>2016-05-19T10:43:14Z</time>
      </trkpt>
      <trkpt lat="43.20816" lon="5.48079">
        <ele>195.77</ele>
        <time>2016-05-19T10:43:39Z</time>
      </trkpt>
      <trkpt lat="43.20818" lon="5.48104">
        <ele>199.13</ele>
        <time>2016-05-19T10:44:04Z</time>
      </trkpt>
      <trkpt lat="43.2083" lon="5.48121">
        <ele>199.61</ele>
        <time>2016-05-19T10:44:29Z</time>
      </trkpt>
      <trkpt lat="43.20843" lon="5.48134">
        <ele>199.13</ele>
        <time>2016-05-19T10:44:54Z</time>
      </trkpt>
      <trkpt lat="43.20863" lon="5.48153">
        <ele>201.53</ele>
        <time>2016-05-19T10:45:19Z</time>
      </trkpt>
      <trkpt lat="43.20878" lon="5.48178">
        <ele>199.61</ele>
        <time>2016-05-19T10:45:44Z</time>
      </trkpt>
      <trkpt lat="43.20891" lon="5.48201">
        <ele>202.01</ele>
        <time>2016-05-19T10:46:09Z</time>
      </trkpt>
      <trkpt lat="43.20905" lon="5.48231">
        <ele>202.01</ele>
        <time>2016-05-19T10:46:34Z</time>
      </trkpt>
      <trkpt lat="43.20929" lon="5.4824">
        <ele>201.53</ele>
        <time>2016-05-19T10:46:59Z</time>
      </trkpt>
      <trkpt lat="43.20943" lon="5.48216">
        <ele>202.01</ele>
        <time>2016-05-19T10:47:24Z</time>
      </trkpt>
      <trkpt lat="43.20956" lon="5.4819">
        <ele>202.98</ele>
        <time>2016-05-19T10:47:49Z</time>
      </trkpt>
      <trkpt lat="43.20966" lon="5.48161">
        <ele>203.46</ele>
        <time>2016-05-19T10:48:14Z</time>
      </trkpt>
      <trkpt lat="43.20968" lon="5.48152">
        <ele>205.38</ele>
        <time>2016-05-19T10:48:39Z</time>
      </trkpt>
      <trkpt lat="43.2097" lon="5.48129">
        <ele>200.09</ele>
        <time>2016-05-19T10:49:04Z</time>
      </trkpt>
      <trkpt lat="43.20974" lon="5.48098">
        <ele>202.01</ele>
        <time>2016-05-19T10:49:29Z</time>
      </trkpt>
      <trkpt lat="43.20979" lon="5.48096">
        <ele>204.9</ele>
        <time>2016-05-19T10:49:54Z</time>
      </trkpt>
      <trkpt lat="43.2099" lon="5.4812">
        <ele>209.22</ele>
        <time>2016-05-19T10:50:19Z</time>
      </trkpt>
      <trkpt lat="43.20998" lon="5.48143">
        <ele>210.19</ele>
        <time>2016-05-19T10:50:44Z</time>
      </trkpt>
      <trkpt lat="43.21009" lon="5.48167">
        <ele>213.07</ele>
        <time>2016-05-19T10:51:09Z</time>
      </trkpt>
      <trkpt lat="43.21015" lon="5.4819">
        <ele>215.95</ele>
        <time>2016-05-19T10:51:34Z</time>
      </trkpt>
      <trkpt lat="43.21014" lon="5.4822">
        <ele>217.88</ele>
        <time>2016-05-19T10:51:59Z</time>
      </trkpt>
      <trkpt lat="43.21018" lon="5.48242">
        <ele>220.76</ele>
        <time>2016-05-19T10:52:24Z</time>
      </trkpt>
      <trkpt lat="43.2102" lon="5.48268">
        <ele>221.24</ele>
        <time>2016-05-19T10:52:49Z</time>
      </trkpt>
      <trkpt lat="43.21022" lon="5.48297">
        <ele>223.16</ele>
        <time>2016-05-19T10:53:14Z</time>
      </trkpt>
      <trkpt lat="43.21021" lon="5.48326">
        <ele>226.53</ele>
        <time>2016-05-19T10:53:39Z</time>
      </trkpt>
      <trkpt lat="43.21019" lon="5.48353">
        <ele>229.41</ele>
        <time>2016-05-19T10:54:04Z</time>
      </trkpt>
      <trkpt lat="43.2102" lon="5.48376">
        <ele>230.37</ele>
        <time>2016-05-19T10:54:29Z</time>
      </trkpt>
      <trkpt lat="43.21029" lon="5.48404">
        <ele>232.3</ele>
        <time>2016-05-19T10:54:54Z</time>
      </trkpt>
      <trkpt lat="43.21035" lon="5.48418">
        <ele>233.26</ele>
        <time>2016-05-19T10:55:19Z</time>
      </trkpt>
      <trkpt lat="43.21039" lon="5.48424">
        <ele>231.81</ele>
        <time>2016-05-19T10:55:44Z</time>
      </trkpt>
      <trkpt lat="43.21039" lon="5.48455">
        <ele>230.85</ele>
        <time>2016-05-19T10:56:09Z</time>
      </trkpt>
      <trkpt lat="43.21034" lon="5.48483">
        <ele>227.49</ele>
        <time>2016-05-19T10:56:34Z</time>
      </trkpt>
      <trkpt lat="43.21028" lon="5.48511">
        <ele>222.68</ele>
        <time>2016-05-19T10:56:59Z</time>
      </trkpt>
      <trkpt lat="43.21013" lon="5.48535">
        <ele>220.76</ele>
        <time>2016-05-19T10:57:24Z</time>
      </trkpt>
      <trkpt lat="43.20999" lon="5.48558">
        <ele>216.91</ele>
        <time>2016-05-19T10:57:49Z</time>
      </trkpt>
      <trkpt lat="43.20982" lon="5.48581">
        <ele>213.07</ele>
        <time>2016-05-19T10:58:14Z</time>
      </trkpt>
      <trkpt lat="43.20973" lon="5.48607">
        <ele>209.7</ele>
        <time>2016-05-19T10:58:39Z</time>
      </trkpt>
      <trkpt lat="43.2097" lon="5.48632">
        <ele>205.86</ele>
        <time>2016-05-19T10:59:04Z</time>
      </trkpt>
      <trkpt lat="43.20966" lon="5.48644">
        <ele>203.46</ele>
        <time>2016-05-19T10:59:30Z</time>
      </trkpt>
      <trkpt lat="43.20962" lon="5.48666">
        <ele>200.57</ele>
        <time>2016-05-19T10:59:57Z</time>
      </trkpt>
      <trkpt lat="43.20956" lon="5.48692">
        <ele>197.69</ele>
        <time>2016-05-19T11:00:22Z</time>
      </trkpt>
      <trkpt lat="43.20957" lon="5.4871">
        <ele>196.73</ele>
        <time>2016-05-19T11:00:47Z</time>
      </trkpt>
      <trkpt lat="43.20956" lon="5.48735">
        <ele>191.44</ele>
        <time>2016-05-19T11:01:12Z</time>
      </trkpt>
      <trkpt lat="43.20952" lon="5.48758">
        <ele>186.63</ele>
        <time>2016-05-19T11:01:37Z</time>
      </trkpt>
      <trkpt lat="43.20949" lon="5.48782">
        <ele>182.31</ele>
        <time>2016-05-19T11:02:02Z</time>
      </trkpt>
      <trkpt lat="43.20947" lon="5.48802">
        <ele>179.42</ele>
        <time>2016-05-19T11:02:27Z</time>
      </trkpt>
      <trkpt lat="43.20949" lon="5.48813">
        <ele>176.06</ele>
        <time>2016-05-19T11:02:52Z</time>
      </trkpt>
      <trkpt lat="43.20947" lon="5.48835">
        <ele>171.73</ele>
        <time>2016-05-19T11:03:17Z</time>
      </trkpt>
      <trkpt lat="43.2094" lon="5.48853">
        <ele>168.85</ele>
        <time>2016-05-19T11:03:42Z</time>
      </trkpt>
      <trkpt lat="43.20949" lon="5.48857">
        <ele>169.81</ele>
        <time>2016-05-19T11:04:07Z</time>
      </trkpt>
      <trkpt lat="43.20961" lon="5.48843">
        <ele>162.6</ele>
        <time>2016-05-19T11:04:32Z</time>
      </trkpt>
      <trkpt lat="43.20978" lon="5.48826">
        <ele>154.91</ele>
        <time>2016-05-19T11:04:57Z</time>
      </trkpt>
      <trkpt lat="43.20991" lon="5.48815">
        <ele>151.54</ele>
        <time>2016-05-19T11:05:22Z</time>
      </trkpt>
      <trkpt lat="43.21002" lon="5.48799">
        <ele>148.18</ele>
        <time>2016-05-19T11:05:47Z</time>
      </trkpt>
      <trkpt lat="43.21016" lon="5.48777">
        <ele>142.89</ele>
        <time>2016-05-19T11:06:12Z</time>
      </trkpt>
      <trkpt lat="43.21039" lon="5.48764">
        <ele>139.53</ele>
        <time>2016-05-19T11:06:37Z</time>
      </trkpt>
      <trkpt lat="43.21064" lon="5.48768">
        <ele>137.61</ele>
        <time>2016-05-19T11:07:02Z</time>
      </trkpt>
      <trkpt lat="43.21088" lon="5.48779">
        <ele>135.68</ele>
        <time>2016-05-19T11:07:27Z</time>
      </trkpt>
      <trkpt lat="43.21084" lon="5.48783">
        <ele>135.68</ele>
        <time>2016-05-19T11:07:52Z</time>
      </trkpt>
      <trkpt lat="43.21084" lon="5.48786">
        <ele>134.72</ele>
        <time>2016-05-19T11:08:17Z</time>
      </trkpt>
      <trkpt lat="43.21107" lon="5.48783">
        <ele>139.05</ele>
        <time>2016-05-19T11:08:42Z</time>
      </trkpt>
      <trkpt lat="43.21099" lon="5.48804">
        <ele>140.01</ele>
        <time>2016-05-19T11:09:07Z</time>
      </trkpt>
      <trkpt lat="43.2108" lon="5.48824">
        <ele>142.89</ele>
        <time>2016-05-19T11:09:32Z</time>
      </trkpt>
      <trkpt lat="43.21064" lon="5.48837">
        <ele>145.3</ele>
        <time>2016-05-19T11:09:57Z</time>
      </trkpt>
      <trkpt lat="43.21051" lon="5.48856">
        <ele>149.14</ele>
        <time>2016-05-19T11:10:22Z</time>
      </trkpt>
      <trkpt lat="43.21058" lon="5.48881">
        <ele>150.58</ele>
        <time>2016-05-19T11:10:47Z</time>
      </trkpt>
      <trkpt lat="43.21072" lon="5.48887">
        <ele>156.35</ele>
        <time>2016-05-19T11:11:12Z</time>
      </trkpt>
      <trkpt lat="43.21072" lon="5.48913">
        <ele>158.27</ele>
        <time>2016-05-19T11:11:37Z</time>
      </trkpt>
      <trkpt lat="43.21066" lon="5.48951">
        <ele>158.75</ele>
        <time>2016-05-19T11:12:02Z</time>
      </trkpt>
      <trkpt lat="43.21057" lon="5.48979">
        <ele>160.68</ele>
        <time>2016-05-19T11:12:27Z</time>
      </trkpt>
      <trkpt lat="43.21048" lon="5.48998">
        <ele>160.68</ele>
        <time>2016-05-19T11:12:52Z</time>
      </trkpt>
      <trkpt lat="43.21041" lon="5.49008">
        <ele>162.12</ele>
        <time>2016-05-19T11:13:17Z</time>
      </trkpt>
      <trkpt lat="43.21025" lon="5.4903">
        <ele>165.96</ele>
        <time>2016-05-19T11:13:42Z</time>
      </trkpt>
      <trkpt lat="43.2102" lon="5.4906">
        <ele>166.45</ele>
        <time>2016-05-19T11:14:07Z</time>
      </trkpt>
      <trkpt lat="43.21015" lon="5.49088">
        <ele>167.89</ele>
        <time>2016-05-19T11:14:32Z</time>
      </trkpt>
      <trkpt lat="43.21006" lon="5.49116">
        <ele>169.81</ele>
        <time>2016-05-19T11:14:57Z</time>
      </trkpt>
      <trkpt lat="43.21005" lon="5.49129">
        <ele>172.21</ele>
        <time>2016-05-19T11:15:22Z</time>
      </trkpt>
      <trkpt lat="43.21024" lon="5.49124">
        <ele>171.73</ele>
        <time>2016-05-19T11:15:47Z</time>
      </trkpt>
      <trkpt lat="43.21039" lon="5.49112">
        <ele>173.17</ele>
        <time>2016-05-19T11:16:12Z</time>
      </trkpt>
      <trkpt lat="43.21043" lon="5.491">
        <ele>174.62</ele>
        <time>2016-05-19T11:16:37Z</time>
      </trkpt>
      <trkpt lat="43.2104" lon="5.49101">
        <ele>173.66</ele>
        <time>2016-05-19T11:17:02Z</time>
      </trkpt>
      <trkpt lat="43.2104" lon="5.49102">
        <ele>173.17</ele>
        <time>2016-05-19T11:17:27Z</time>
      </trkpt>
      <trkpt lat="43.2104" lon="5.49101">
        <ele>175.1</ele>
        <time>2016-05-19T11:17:52Z</time>
      </trkpt>
      <trkpt lat="43.21038" lon="5.49102">
        <ele>172.69</ele>
        <time>2016-05-19T11:18:17Z</time>
      </trkpt>
      <trkpt lat="43.21037" lon="5.49103">
        <ele>171.25</ele>
        <time>2016-05-19T11:18:42Z</time>
      </trkpt>
      <trkpt lat="43.21036" lon="5.49104">
        <ele>171.73</ele>
        <time>2016-05-19T11:19:07Z</time>
      </trkpt>
      <trkpt lat="43.21037" lon="5.491">
        <ele>173.17</ele>
        <time>2016-05-19T11:19:32Z</time>
      </trkpt>
      <trkpt lat="43.21038" lon="5.49102">
        <ele>173.17</ele>
        <time>2016-05-19T11:19:57Z</time>
      </trkpt>
      <trkpt lat="43.21037" lon="5.49102">
        <ele>173.17</ele>
        <time>2016-05-19T11:20:22Z</time>
      </trkpt>
      <trkpt lat="43.21038" lon="5.49103">
        <ele>173.17</ele>
        <time>2016-05-19T11:20:47Z</time>
      </trkpt>
      <trkpt lat="43.21039" lon="5.49102">
        <ele>173.66</ele>
        <time>2016-05-19T11:21:12Z</time>
      </trkpt>
      <trkpt lat="43.21039" lon="5.49102">
        <ele>173.17</ele>
        <time>2016-05-19T11:21:37Z</time>
      </trkpt>
      <trkpt lat="43.21037" lon="5.49101">
        <ele>172.21</ele>
        <time>2016-05-19T11:22:02Z</time>
      </trkpt>
      <trkpt lat="43.21039" lon="5.49101">
        <ele>174.14</ele>
        <time>2016-05-19T11:22:27Z</time>
      </trkpt>
      <trkpt lat="43.21044" lon="5.49095">
        <ele>175.1</ele>
        <time>2016-05-19T11:22:52Z</time>
      </trkpt>
      <trkpt lat="43.21046" lon="5.49084">
        <ele>177.02</ele>
        <time>2016-05-19T11:23:17Z</time>
      </trkpt>
      <trkpt lat="43.21063" lon="5.49056">
        <ele>176.06</ele>
        <time>2016-05-19T11:23:42Z</time>
      </trkpt>
      <trkpt lat="43.21072" lon="5.49043">
        <ele>178.94</ele>
        <time>2016-05-19T11:24:07Z</time>
      </trkpt>
      <trkpt lat="43.21087" lon="5.49024">
        <ele>178.94</ele>
        <time>2016-05-19T11:24:32Z</time>
      </trkpt>
      <trkpt lat="43.21103" lon="5.49003">
        <ele>182.79</ele>
        <time>2016-05-19T11:24:57Z</time>
      </trkpt>
      <trkpt lat="43.21117" lon="5.48976">
        <ele>185.67</ele>
        <time>2016-05-19T11:25:22Z</time>
      </trkpt>
      <trkpt lat="43.21133" lon="5.48954">
        <ele>186.15</ele>
        <time>2016-05-19T11:25:47Z</time>
      </trkpt>
      <trkpt lat="43.21149" lon="5.48931">
        <ele>190</ele>
        <time>2016-05-19T11:26:12Z</time>
      </trkpt>
      <trkpt lat="43.21162" lon="5.48907">
        <ele>194.32</ele>
        <time>2016-05-19T11:26:37Z</time>
      </trkpt>
      <trkpt lat="43.21175" lon="5.48887">
        <ele>196.25</ele>
        <time>2016-05-19T11:27:02Z</time>
      </trkpt>
      <trkpt lat="43.21189" lon="5.48866">
        <ele>197.21</ele>
        <time>2016-05-19T11:27:27Z</time>
      </trkpt>
      <trkpt lat="43.21205" lon="5.48847">
        <ele>201.53</ele>
        <time>2016-05-19T11:27:52Z</time>
      </trkpt>
      <trkpt lat="43.2122" lon="5.48826">
        <ele>201.05</ele>
        <time>2016-05-19T11:28:17Z</time>
      </trkpt>
      <trkpt lat="43.21234" lon="5.48803">
        <ele>205.38</ele>
        <time>2016-05-19T11:28:42Z</time>
      </trkpt>
      <trkpt lat="43.21252" lon="5.48788">
        <ele>208.26</ele>
        <time>2016-05-19T11:29:07Z</time>
      </trkpt>
      <trkpt lat="43.21271" lon="5.4877">
        <ele>209.7</ele>
        <time>2016-05-19T11:29:32Z</time>
      </trkpt>
      <trkpt lat="43.21292" lon="5.4875">
        <ele>211.63</ele>
        <time>2016-05-19T11:29:57Z</time>
      </trkpt>
      <trkpt lat="43.21313" lon="5.4873">
        <ele>209.22</ele>
        <time>2016-05-19T11:30:22Z</time>
      </trkpt>
      <trkpt lat="43.21335" lon="5.48711">
        <ele>211.63</ele>
        <time>2016-05-19T11:30:47Z</time>
      </trkpt>
      <trkpt lat="43.21353" lon="5.48695">
        <ele>214.99</ele>
        <time>2016-05-19T11:31:12Z</time>
      </trkpt>
      <trkpt lat="43.2136" lon="5.48668">
        <ele>216.43</ele>
        <time>2016-05-19T11:31:37Z</time>
      </trkpt>
      <trkpt lat="43.21369" lon="5.48647">
        <ele>217.88</ele>
        <time>2016-05-19T11:32:02Z</time>
      </trkpt>
      <trkpt lat="43.21377" lon="5.4862">
        <ele>219.8</ele>
        <time>2016-05-19T11:32:27Z</time>
      </trkpt>
      <trkpt lat="43.21387" lon="5.48601">
        <ele>223.64</ele>
        <time>2016-05-19T11:32:52Z</time>
      </trkpt>
      <trkpt lat="43.21398" lon="5.48586">
        <ele>228.45</ele>
        <time>2016-05-19T11:33:17Z</time>
      </trkpt>
      <trkpt lat="43.21405" lon="5.48563">
        <ele>228.93</ele>
        <time>2016-05-19T11:33:42Z</time>
      </trkpt>
      <trkpt lat="43.21412" lon="5.48538">
        <ele>230.85</ele>
        <time>2016-05-19T11:34:07Z</time>
      </trkpt>
      <trkpt lat="43.21423" lon="5.48519">
        <ele>234.22</ele>
        <time>2016-05-19T11:34:32Z</time>
      </trkpt>
      <trkpt lat="43.21431" lon="5.48495">
        <ele>235.66</ele>
        <time>2016-05-19T11:34:57Z</time>
      </trkpt>
      <trkpt lat="43.21436" lon="5.48465">
        <ele>236.62</ele>
        <time>2016-05-19T11:35:22Z</time>
      </trkpt>
      <trkpt lat="43.21439" lon="5.48434">
        <ele>234.7</ele>
        <time>2016-05-19T11:35:47Z</time>
      </trkpt>
      <trkpt lat="43.21441" lon="5.48405">
        <ele>238.06</ele>
        <time>2016-05-19T11:36:12Z</time>
      </trkpt>
      <trkpt lat="43.21441" lon="5.4838">
        <ele>240.95</ele>
        <time>2016-05-19T11:36:37Z</time>
      </trkpt>
      <trkpt lat="43.21433" lon="5.48358">
        <ele>243.83</ele>
        <time>2016-05-19T11:37:02Z</time>
      </trkpt>
      <trkpt lat="43.21439" lon="5.48335">
        <ele>244.79</ele>
        <time>2016-05-19T11:37:27Z</time>
      </trkpt>
      <trkpt lat="43.21455" lon="5.48312">
        <ele>244.79</ele>
        <time>2016-05-19T11:37:52Z</time>
      </trkpt>
      <trkpt lat="43.2147" lon="5.48295">
        <ele>243.83</ele>
        <time>2016-05-19T11:38:17Z</time>
      </trkpt>
      <trkpt lat="43.21483" lon="5.48269">
        <ele>242.39</ele>
        <time>2016-05-19T11:38:42Z</time>
      </trkpt>
      <trkpt lat="43.21491" lon="5.48238">
        <ele>242.39</ele>
        <time>2016-05-19T11:39:07Z</time>
      </trkpt>
      <trkpt lat="43.21493" lon="5.48219">
        <ele>245.27</ele>
        <time>2016-05-19T11:39:32Z</time>
      </trkpt>
      <trkpt lat="43.21492" lon="5.48208">
        <ele>242.87</ele>
        <time>2016-05-19T11:39:57Z</time>
      </trkpt>
      <trkpt lat="43.21492" lon="5.48186">
        <ele>251.04</ele>
        <time>2016-05-19T11:40:22Z</time>
      </trkpt>
      <trkpt lat="43.21492" lon="5.48165">
        <ele>252</ele>
        <time>2016-05-19T11:40:47Z</time>
      </trkpt>
      <trkpt lat="43.21489" lon="5.48153">
        <ele>255.85</ele>
        <time>2016-05-19T11:41:12Z</time>
      </trkpt>
      <trkpt lat="43.2149" lon="5.4814">
        <ele>259.21</ele>
        <time>2016-05-19T11:41:37Z</time>
      </trkpt>
      <trkpt lat="43.21487" lon="5.48139">
        <ele>260.65</ele>
        <time>2016-05-19T11:42:02Z</time>
      </trkpt>
      <trkpt lat="43.21482" lon="5.48129">
        <ele>263.06</ele>
        <time>2016-05-19T11:42:27Z</time>
      </trkpt>
      <trkpt lat="43.21479" lon="5.48117">
        <ele>264.98</ele>
        <time>2016-05-19T11:42:52Z</time>
      </trkpt>
      <trkpt lat="43.21478" lon="5.48107">
        <ele>270.27</ele>
        <time>2016-05-19T11:43:17Z</time>
      </trkpt>
      <trkpt lat="43.21464" lon="5.48098">
        <ele>272.67</ele>
        <time>2016-05-19T11:43:42Z</time>
      </trkpt>
      <trkpt lat="43.2145" lon="5.48081">
        <ele>275.56</ele>
        <time>2016-05-19T11:44:07Z</time>
      </trkpt>
      <trkpt lat="43.21444" lon="5.48068">
        <ele>277.48</ele>
        <time>2016-05-19T11:44:32Z</time>
      </trkpt>
      <trkpt lat="43.21456" lon="5.48069">
        <ele>280.36</ele>
        <time>2016-05-19T11:44:57Z</time>
      </trkpt>
      <trkpt lat="43.21451" lon="5.48063">
        <ele>280.36</ele>
        <time>2016-05-19T11:45:22Z</time>
      </trkpt>
      <trkpt lat="43.21453" lon="5.4806">
        <ele>282.28</ele>
        <time>2016-05-19T11:45:47Z</time>
      </trkpt>
      <trkpt lat="43.21444" lon="5.48054">
        <ele>282.77</ele>
        <time>2016-05-19T11:46:12Z</time>
      </trkpt>
      <trkpt lat="43.21443" lon="5.48047">
        <ele>286.61</ele>
        <time>2016-05-19T11:46:37Z</time>
      </trkpt>
      <trkpt lat="43.21461" lon="5.48045">
        <ele>290.46</ele>
        <time>2016-05-19T11:47:02Z</time>
      </trkpt>
      <trkpt lat="43.21464" lon="5.48033">
        <ele>294.78</ele>
        <time>2016-05-19T11:47:27Z</time>
      </trkpt>
      <trkpt lat="43.21459" lon="5.4801">
        <ele>298.15</ele>
        <time>2016-05-19T11:47:52Z</time>
      </trkpt>
      <trkpt lat="43.21463" lon="5.4799">
        <ele>301.51</ele>
        <time>2016-05-19T11:48:17Z</time>
      </trkpt>
      <trkpt lat="43.2147" lon="5.47976">
        <ele>303.91</ele>
        <time>2016-05-19T11:48:42Z</time>
      </trkpt>
      <trkpt lat="43.21475" lon="5.47952">
        <ele>308.72</ele>
        <time>2016-05-19T11:49:07Z</time>
      </trkpt>
      <trkpt lat="43.21482" lon="5.47932">
        <ele>312.57</ele>
        <time>2016-05-19T11:49:32Z</time>
      </trkpt>
      <trkpt lat="43.2149" lon="5.47912">
        <ele>315.93</ele>
        <time>2016-05-19T11:49:57Z</time>
      </trkpt>
      <trkpt lat="43.21498" lon="5.47894">
        <ele>319.3</ele>
        <time>2016-05-19T11:50:22Z</time>
      </trkpt>
      <trkpt lat="43.21509" lon="5.47873">
        <ele>321.22</ele>
        <time>2016-05-19T11:50:47Z</time>
      </trkpt>
      <trkpt lat="43.21516" lon="5.47846">
        <ele>322.66</ele>
        <time>2016-05-19T11:51:12Z</time>
      </trkpt>
      <trkpt lat="43.21524" lon="5.47819">
        <ele>321.7</ele>
        <time>2016-05-19T11:51:37Z</time>
      </trkpt>
      <trkpt lat="43.21533" lon="5.4779">
        <ele>323.14</ele>
        <time>2016-05-19T11:52:02Z</time>
      </trkpt>
      <trkpt lat="43.21532" lon="5.47762">
        <ele>325.54</ele>
        <time>2016-05-19T11:52:27Z</time>
      </trkpt>
      <trkpt lat="43.21538" lon="5.47741">
        <ele>328.43</ele>
        <time>2016-05-19T11:52:52Z</time>
      </trkpt>
      <trkpt lat="43.21535" lon="5.47722">
        <ele>331.79</ele>
        <time>2016-05-19T11:53:17Z</time>
      </trkpt>
      <trkpt lat="43.21521" lon="5.47725">
        <ele>335.16</ele>
        <time>2016-05-19T11:53:42Z</time>
      </trkpt>
      <trkpt lat="43.21502" lon="5.47727">
        <ele>337.08</ele>
        <time>2016-05-19T11:54:07Z</time>
      </trkpt>
      <trkpt lat="43.21483" lon="5.47725">
        <ele>339</ele>
        <time>2016-05-19T11:54:32Z</time>
      </trkpt>
      <trkpt lat="43.2148" lon="5.47718">
        <ele>341.89</ele>
        <time>2016-05-19T11:54:57Z</time>
      </trkpt>
      <trkpt lat="43.21488" lon="5.47712">
        <ele>345.73</ele>
        <time>2016-05-19T11:55:22Z</time>
      </trkpt>
      <trkpt lat="43.2148" lon="5.47699">
        <ele>349.58</ele>
        <time>2016-05-19T11:55:47Z</time>
      </trkpt>
      <trkpt lat="43.21472" lon="5.47682">
        <ele>352.46</ele>
        <time>2016-05-19T11:56:12Z</time>
      </trkpt>
      <trkpt lat="43.2148" lon="5.47677">
        <ele>357.75</ele>
        <time>2016-05-19T11:56:37Z</time>
      </trkpt>
      <trkpt lat="43.21469" lon="5.4766">
        <ele>361.11</ele>
        <time>2016-05-19T11:57:02Z</time>
      </trkpt>
      <trkpt lat="43.21473" lon="5.47653">
        <ele>361.59</ele>
        <time>2016-05-19T11:57:27Z</time>
      </trkpt>
      <trkpt lat="43.21473" lon="5.47637">
        <ele>367.84</ele>
        <time>2016-05-19T11:57:52Z</time>
      </trkpt>
      <trkpt lat="43.21479" lon="5.47637">
        <ele>365.44</ele>
        <time>2016-05-19T11:58:17Z</time>
      </trkpt>
      <trkpt lat="43.21485" lon="5.47634">
        <ele>372.17</ele>
        <time>2016-05-19T11:58:42Z</time>
      </trkpt>
      <trkpt lat="43.2149" lon="5.47628">
        <ele>374.09</ele>
        <time>2016-05-19T11:59:07Z</time>
      </trkpt>
      <trkpt lat="43.21503" lon="5.47627">
        <ele>375.53</ele>
        <time>2016-05-19T11:59:32Z</time>
      </trkpt>
      <trkpt lat="43.21498" lon="5.47608">
        <ele>380.82</ele>
        <time>2016-05-19T11:59:57Z</time>
      </trkpt>
      <trkpt lat="43.21504" lon="5.47606">
        <ele>384.66</ele>
        <time>2016-05-19T12:00:22Z</time>
      </trkpt>
      <trkpt lat="43.21512" lon="5.47601">
        <ele>387.55</ele>
        <time>2016-05-19T12:00:47Z</time>
      </trkpt>
      <trkpt lat="43.21527" lon="5.47606">
        <ele>389.47</ele>
        <time>2016-05-19T12:01:12Z</time>
      </trkpt>
      <trkpt lat="43.21542" lon="5.47606">
        <ele>393.8</ele>
        <time>2016-05-19T12:01:37Z</time>
      </trkpt>
      <trkpt lat="43.21556" lon="5.47597">
        <ele>396.2</ele>
        <time>2016-05-19T12:02:02Z</time>
      </trkpt>
      <trkpt lat="43.21549" lon="5.47587">
        <ele>399.57</ele>
        <time>2016-05-19T12:02:27Z</time>
      </trkpt>
      <trkpt lat="43.21549" lon="5.47582">
        <ele>402.45</ele>
        <time>2016-05-19T12:02:52Z</time>
      </trkpt>
      <trkpt lat="43.21559" lon="5.47573">
        <ele>404.37</ele>
        <time>2016-05-19T12:03:17Z</time>
      </trkpt>
      <trkpt lat="43.21566" lon="5.4756">
        <ele>410.14</ele>
        <time>2016-05-19T12:03:42Z</time>
      </trkpt>
      <trkpt lat="43.2157" lon="5.47549">
        <ele>415.91</ele>
        <time>2016-05-19T12:04:07Z</time>
      </trkpt>
      <trkpt lat="43.21578" lon="5.47544">
        <ele>417.35</ele>
        <time>2016-05-19T12:04:32Z</time>
      </trkpt>
      <trkpt lat="43.21592" lon="5.47532">
        <ele>420.71</ele>
        <time>2016-05-19T12:04:57Z</time>
      </trkpt>
      <trkpt lat="43.21606" lon="5.47515">
        <ele>424.08</ele>
        <time>2016-05-19T12:05:22Z</time>
      </trkpt>
      <trkpt lat="43.2162" lon="5.47508">
        <ele>429.85</ele>
        <time>2016-05-19T12:05:47Z</time>
      </trkpt>
      <trkpt lat="43.21628" lon="5.47504">
        <ele>433.21</ele>
        <time>2016-05-19T12:06:12Z</time>
      </trkpt>
      <trkpt lat="43.21629" lon="5.47487">
        <ele>437.06</ele>
        <time>2016-05-19T12:06:37Z</time>
      </trkpt>
      <trkpt lat="43.2163" lon="5.47469">
        <ele>437.54</ele>
        <time>2016-05-19T12:07:02Z</time>
      </trkpt>
      <trkpt lat="43.21634" lon="5.47453">
        <ele>444.75</ele>
        <time>2016-05-19T12:07:27Z</time>
      </trkpt>
      <trkpt lat="43.2162" lon="5.47448">
        <ele>446.67</ele>
        <time>2016-05-19T12:07:52Z</time>
      </trkpt>
      <trkpt lat="43.21604" lon="5.47438">
        <ele>447.63</ele>
        <time>2016-05-19T12:08:17Z</time>
      </trkpt>
      <trkpt lat="43.21601" lon="5.47419">
        <ele>451</ele>
        <time>2016-05-19T12:08:42Z</time>
      </trkpt>
      <trkpt lat="43.21595" lon="5.47395">
        <ele>452.92</ele>
        <time>2016-05-19T12:09:07Z</time>
      </trkpt>
      <trkpt lat="43.21596" lon="5.47371">
        <ele>455.8</ele>
        <time>2016-05-19T12:09:32Z</time>
      </trkpt>
      <trkpt lat="43.21597" lon="5.47347">
        <ele>459.65</ele>
        <time>2016-05-19T12:09:57Z</time>
      </trkpt>
      <trkpt lat="43.21603" lon="5.47324">
        <ele>460.61</ele>
        <time>2016-05-19T12:10:22Z</time>
      </trkpt>
      <trkpt lat="43.21614" lon="5.47305">
        <ele>463.97</ele>
        <time>2016-05-19T12:10:47Z</time>
      </trkpt>
      <trkpt lat="43.21621" lon="5.47279">
        <ele>467.34</ele>
        <time>2016-05-19T12:11:12Z</time>
      </trkpt>
      <trkpt lat="43.21627" lon="5.47255">
        <ele>468.3</ele>
        <time>2016-05-19T12:11:37Z</time>
      </trkpt>
      <trkpt lat="43.21636" lon="5.47234">
        <ele>472.14</ele>
        <time>2016-05-19T12:12:02Z</time>
      </trkpt>
      <trkpt lat="43.21637" lon="5.47207">
        <ele>475.99</ele>
        <time>2016-05-19T12:12:27Z</time>
      </trkpt>
      <trkpt lat="43.21651" lon="5.47181">
        <ele>474.07</ele>
        <time>2016-05-19T12:12:52Z</time>
      </trkpt>
      <trkpt lat="43.21665" lon="5.4716">
        <ele>474.55</ele>
        <time>2016-05-19T12:13:17Z</time>
      </trkpt>
      <trkpt lat="43.21676" lon="5.47133">
        <ele>474.07</ele>
        <time>2016-05-19T12:13:42Z</time>
      </trkpt>
      <trkpt lat="43.21693" lon="5.47112">
        <ele>473.59</ele>
        <time>2016-05-19T12:14:07Z</time>
      </trkpt>
      <trkpt lat="43.21706" lon="5.47084">
        <ele>474.55</ele>
        <time>2016-05-19T12:14:32Z</time>
      </trkpt>
      <trkpt lat="43.21721" lon="5.47061">
        <ele>476.47</ele>
        <time>2016-05-19T12:14:57Z</time>
      </trkpt>
      <trkpt lat="43.21733" lon="5.47036">
        <ele>477.91</ele>
        <time>2016-05-19T12:15:22Z</time>
      </trkpt>
      <trkpt lat="43.21736" lon="5.47008">
        <ele>480.32</ele>
        <time>2016-05-19T12:15:47Z</time>
      </trkpt>
      <trkpt lat="43.21741" lon="5.46981">
        <ele>483.68</ele>
        <time>2016-05-19T12:16:12Z</time>
      </trkpt>
      <trkpt lat="43.21747" lon="5.46957">
        <ele>484.16</ele>
        <time>2016-05-19T12:16:37Z</time>
      </trkpt>
      <trkpt lat="43.21752" lon="5.46931">
        <ele>487.05</ele>
        <time>2016-05-19T12:17:02Z</time>
      </trkpt>
      <trkpt lat="43.21756" lon="5.46908">
        <ele>488.97</ele>
        <time>2016-05-19T12:17:27Z</time>
      </trkpt>
      <trkpt lat="43.21761" lon="5.46881">
        <ele>491.85</ele>
        <time>2016-05-19T12:17:52Z</time>
      </trkpt>
      <trkpt lat="43.21766" lon="5.46869">
        <ele>490.41</ele>
        <time>2016-05-19T12:18:17Z</time>
      </trkpt>
      <trkpt lat="43.21773" lon="5.46846">
        <ele>495.22</ele>
        <time>2016-05-19T12:18:42Z</time>
      </trkpt>
      <trkpt lat="43.21782" lon="5.46829">
        <ele>499.06</ele>
        <time>2016-05-19T12:19:07Z</time>
      </trkpt>
      <trkpt lat="43.21794" lon="5.46813">
        <ele>500.5</ele>
        <time>2016-05-19T12:19:32Z</time>
      </trkpt>
      <trkpt lat="43.2181" lon="5.46799">
        <ele>504.83</ele>
        <time>2016-05-19T12:19:57Z</time>
      </trkpt>
      <trkpt lat="43.21822" lon="5.4679">
        <ele>507.71</ele>
        <time>2016-05-19T12:20:22Z</time>
      </trkpt>
      <trkpt lat="43.21847" lon="5.46788">
        <ele>505.31</ele>
        <time>2016-05-19T12:20:47Z</time>
      </trkpt>
      <trkpt lat="43.21857" lon="5.46788">
        <ele>504.35</ele>
        <time>2016-05-19T12:21:12Z</time>
      </trkpt>
      <trkpt lat="43.21857" lon="5.46788">
        <ele>506.27</ele>
        <time>2016-05-19T12:21:37Z</time>
      </trkpt>
      <trkpt lat="43.21856" lon="5.46788">
        <ele>504.83</ele>
        <time>2016-05-19T12:22:02Z</time>
      </trkpt>
      <trkpt lat="43.21856" lon="5.46788">
        <ele>505.31</ele>
        <time>2016-05-19T12:22:27Z</time>
      </trkpt>
      <trkpt lat="43.21857" lon="5.46788">
        <ele>505.79</ele>
        <time>2016-05-19T12:22:52Z</time>
      </trkpt>
      <trkpt lat="43.21857" lon="5.46789">
        <ele>504.83</ele>
        <time>2016-05-19T12:23:17Z</time>
      </trkpt>
      <trkpt lat="43.21856" lon="5.46788">
        <ele>504.83</ele>
        <time>2016-05-19T12:23:42Z</time>
      </trkpt>
      <trkpt lat="43.21857" lon="5.46786">
        <ele>505.31</ele>
        <time>2016-05-19T12:24:07Z</time>
      </trkpt>
      <trkpt lat="43.2186" lon="5.46787">
        <ele>504.83</ele>
        <time>2016-05-19T12:24:32Z</time>
      </trkpt>
      <trkpt lat="43.21877" lon="5.46787">
        <ele>507.23</ele>
        <time>2016-05-19T12:24:57Z</time>
      </trkpt>
      <trkpt lat="43.21901" lon="5.46781">
        <ele>508.19</ele>
        <time>2016-05-19T12:25:22Z</time>
      </trkpt>
      <trkpt lat="43.21925" lon="5.46786">
        <ele>509.64</ele>
        <time>2016-05-19T12:25:47Z</time>
      </trkpt>
      <trkpt lat="43.21946" lon="5.46791">
        <ele>510.12</ele>
        <time>2016-05-19T12:26:12Z</time>
      </trkpt>
      <trkpt lat="43.21967" lon="5.46796">
        <ele>510.6</ele>
        <time>2016-05-19T12:26:37Z</time>
      </trkpt>
      <trkpt lat="43.21992" lon="5.468">
        <ele>510.12</ele>
        <time>2016-05-19T12:27:02Z</time>
      </trkpt>
      <trkpt lat="43.22015" lon="5.46801">
        <ele>510.6</ele>
        <time>2016-05-19T12:27:27Z</time>
      </trkpt>
      <trkpt lat="43.22037" lon="5.4681">
        <ele>510.6</ele>
        <time>2016-05-19T12:27:52Z</time>
      </trkpt>
      <trkpt lat="43.22059" lon="5.46826">
        <ele>511.56</ele>
        <time>2016-05-19T12:28:17Z</time>
      </trkpt>
      <trkpt lat="43.22073" lon="5.46851">
        <ele>508.19</ele>
        <time>2016-05-19T12:28:42Z</time>
      </trkpt>
      <trkpt lat="43.22082" lon="5.4687">
        <ele>506.27</ele>
        <time>2016-05-19T12:29:07Z</time>
      </trkpt>
      <trkpt lat="43.22094" lon="5.46896">
        <ele>508.67</ele>
        <time>2016-05-19T12:29:32Z</time>
      </trkpt>
      <trkpt lat="43.22104" lon="5.4692">
        <ele>501.46</ele>
        <time>2016-05-19T12:29:57Z</time>
      </trkpt>
      <trkpt lat="43.2211" lon="5.46948">
        <ele>500.02</ele>
        <time>2016-05-19T12:30:22Z</time>
      </trkpt>
      <trkpt lat="43.2212" lon="5.46976">
        <ele>494.74</ele>
        <time>2016-05-19T12:30:47Z</time>
      </trkpt>
      <trkpt lat="43.22134" lon="5.47001">
        <ele>492.33</ele>
        <time>2016-05-19T12:31:12Z</time>
      </trkpt>
      <trkpt lat="43.22151" lon="5.47023">
        <ele>488.49</ele>
        <time>2016-05-19T12:31:37Z</time>
      </trkpt>
      <trkpt lat="43.22169" lon="5.47043">
        <ele>481.76</ele>
        <time>2016-05-19T12:32:02Z</time>
      </trkpt>
      <trkpt lat="43.22188" lon="5.4706">
        <ele>481.76</ele>
        <time>2016-05-19T12:32:27Z</time>
      </trkpt>
      <trkpt lat="43.22209" lon="5.47073">
        <ele>484.16</ele>
        <time>2016-05-19T12:32:52Z</time>
      </trkpt>
      <trkpt lat="43.22233" lon="5.47083">
        <ele>478.87</ele>
        <time>2016-05-19T12:33:17Z</time>
      </trkpt>
      <trkpt lat="43.22245" lon="5.47087">
        <ele>474.07</ele>
        <time>2016-05-19T12:33:42Z</time>
      </trkpt>
      <trkpt lat="43.22268" lon="5.47099">
        <ele>479.84</ele>
        <time>2016-05-19T12:34:07Z</time>
      </trkpt>
      <trkpt lat="43.2229" lon="5.47114">
        <ele>481.28</ele>
        <time>2016-05-19T12:34:32Z</time>
      </trkpt>
      <trkpt lat="43.22309" lon="5.47136">
        <ele>479.84</ele>
        <time>2016-05-19T12:34:57Z</time>
      </trkpt>
      <trkpt lat="43.22326" lon="5.47159">
        <ele>476.47</ele>
        <time>2016-05-19T12:35:22Z</time>
      </trkpt>
      <trkpt lat="43.22338" lon="5.47186">
        <ele>474.07</ele>
        <time>2016-05-19T12:35:47Z</time>
      </trkpt>
      <trkpt lat="43.22349" lon="5.47215">
        <ele>475.03</ele>
        <time>2016-05-19T12:36:12Z</time>
      </trkpt>
      <trkpt lat="43.22352" lon="5.47218">
        <ele>473.11</ele>
        <time>2016-05-19T12:36:37Z</time>
      </trkpt>
      <trkpt lat="43.22351" lon="5.47218">
        <ele>475.03</ele>
        <time>2016-05-19T12:37:01Z</time>
      </trkpt>
      <trkpt lat="43.22343" lon="5.47196">
        <ele>471.18</ele>
        <time>2016-05-19T12:37:27Z</time>
      </trkpt>
      <trkpt lat="43.22331" lon="5.47167">
        <ele>473.59</ele>
        <time>2016-05-19T12:37:52Z</time>
      </trkpt>
      <trkpt lat="43.22316" lon="5.47143">
        <ele>477.91</ele>
        <time>2016-05-19T12:38:17Z</time>
      </trkpt>
      <trkpt lat="43.22299" lon="5.47123">
        <ele>473.11</ele>
        <time>2016-05-19T12:38:42Z</time>
      </trkpt>
      <trkpt lat="43.22282" lon="5.47102">
        <ele>475.51</ele>
        <time>2016-05-19T12:39:07Z</time>
      </trkpt>
      <trkpt lat="43.22281" lon="5.47096">
        <ele>495.7</ele>
        <time>2016-05-19T12:39:32Z</time>
      </trkpt>
      <trkpt lat="43.22271" lon="5.47101">
        <ele>477.91</ele>
        <time>2016-05-19T12:39:57Z</time>
      </trkpt>
      <trkpt lat="43.22269" lon="5.471">
        <ele>475.03</ele>
        <time>2016-05-19T12:40:22Z</time>
      </trkpt>
      <trkpt lat="43.22269" lon="5.471">
        <ele>476.95</ele>
        <time>2016-05-19T12:40:47Z</time>
      </trkpt>
      <trkpt lat="43.2227" lon="5.47101">
        <ele>484.16</ele>
        <time>2016-05-19T12:41:12Z</time>
      </trkpt>
      <trkpt lat="43.2227" lon="5.47102">
        <ele>488.49</ele>
        <time>2016-05-19T12:41:37Z</time>
      </trkpt>
      <trkpt lat="43.22268" lon="5.47101">
        <ele>482.72</ele>
        <time>2016-05-19T12:42:03Z</time>
      </trkpt>
      <trkpt lat="43.22254" lon="5.47092">
        <ele>486.08</ele>
        <time>2016-05-19T12:42:28Z</time>
      </trkpt>
      <trkpt lat="43.22231" lon="5.47078">
        <ele>482.24</ele>
        <time>2016-05-19T12:42:53Z</time>
      </trkpt>
      <trkpt lat="43.22225" lon="5.47057">
        <ele>479.84</ele>
        <time>2016-05-19T12:43:18Z</time>
      </trkpt>
      <trkpt lat="43.22209" lon="5.47047">
        <ele>489.45</ele>
        <time>2016-05-19T12:43:43Z</time>
      </trkpt>
      <trkpt lat="43.22189" lon="5.47038">
        <ele>487.05</ele>
        <time>2016-05-19T12:44:08Z</time>
      </trkpt>
      <trkpt lat="43.2217" lon="5.47044">
        <ele>486.08</ele>
        <time>2016-05-19T12:44:33Z</time>
      </trkpt>
      <trkpt lat="43.22156" lon="5.4703">
        <ele>487.05</ele>
        <time>2016-05-19T12:44:58Z</time>
      </trkpt>
      <trkpt lat="43.22151" lon="5.47021">
        <ele>488.49</ele>
        <time>2016-05-19T12:45:23Z</time>
      </trkpt>
      <trkpt lat="43.22149" lon="5.47019">
        <ele>488.01</ele>
        <time>2016-05-19T12:45:48Z</time>
      </trkpt>
      <trkpt lat="43.22142" lon="5.47009">
        <ele>492.33</ele>
        <time>2016-05-19T12:46:13Z</time>
      </trkpt>
      <trkpt lat="43.22127" lon="5.46988">
        <ele>489.93</ele>
        <time>2016-05-19T12:46:38Z</time>
      </trkpt>
      <trkpt lat="43.22116" lon="5.46962">
        <ele>495.7</ele>
        <time>2016-05-19T12:47:03Z</time>
      </trkpt>
      <trkpt lat="43.22128" lon="5.46956">
        <ele>490.41</ele>
        <time>2016-05-19T12:47:28Z</time>
      </trkpt>
      <trkpt lat="43.22132" lon="5.46942">
        <ele>496.18</ele>
        <time>2016-05-19T12:47:53Z</time>
      </trkpt>
      <trkpt lat="43.22127" lon="5.46928">
        <ele>486.08</ele>
        <time>2016-05-19T12:48:18Z</time>
      </trkpt>
      <trkpt lat="43.22131" lon="5.46925">
        <ele>488.49</ele>
        <time>2016-05-19T12:48:43Z</time>
      </trkpt>
      <trkpt lat="43.22137" lon="5.46935">
        <ele>480.32</ele>
        <time>2016-05-19T12:49:08Z</time>
      </trkpt>
      <trkpt lat="43.22138" lon="5.46932">
        <ele>465.9</ele>
        <time>2016-05-19T12:49:32Z</time>
      </trkpt>
      <trkpt lat="43.22142" lon="5.46921">
        <ele>465.9</ele>
        <time>2016-05-19T12:49:58Z</time>
      </trkpt>
      <trkpt lat="43.22148" lon="5.46935">
        <ele>465.42</ele>
        <time>2016-05-19T12:50:23Z</time>
      </trkpt>
      <trkpt lat="43.22158" lon="5.46913">
        <ele>463.01</ele>
        <time>2016-05-19T12:50:48Z</time>
      </trkpt>
      <trkpt lat="43.22166" lon="5.46899">
        <ele>453.4</ele>
        <time>2016-05-19T12:51:13Z</time>
      </trkpt>
      <trkpt lat="43.22169" lon="5.46902">
        <ele>448.59</ele>
        <time>2016-05-19T12:51:38Z</time>
      </trkpt>
      <trkpt lat="43.22175" lon="5.46896">
        <ele>439.46</ele>
        <time>2016-05-19T12:52:03Z</time>
      </trkpt>
      <trkpt lat="43.2218" lon="5.46898">
        <ele>444.75</ele>
        <time>2016-05-19T12:52:28Z</time>
      </trkpt>
      <trkpt lat="43.22182" lon="5.46901">
        <ele>438.02</ele>
        <time>2016-05-19T12:52:53Z</time>
      </trkpt>
      <trkpt lat="43.22183" lon="5.46902">
        <ele>439.46</ele>
        <time>2016-05-19T12:53:18Z</time>
      </trkpt>
      <trkpt lat="43.22183" lon="5.46912">
        <ele>437.06</ele>
        <time>2016-05-19T12:53:43Z</time>
      </trkpt>
      <trkpt lat="43.22191" lon="5.46931">
        <ele>432.25</ele>
        <time>2016-05-19T12:54:08Z</time>
      </trkpt>
      <trkpt lat="43.222" lon="5.46938">
        <ele>427.44</ele>
        <time>2016-05-19T12:54:33Z</time>
      </trkpt>
      <trkpt lat="43.22215" lon="5.4693">
        <ele>421.19</ele>
        <time>2016-05-19T12:54:58Z</time>
      </trkpt>
      <trkpt lat="43.22227" lon="5.46926">
        <ele>415.91</ele>
        <time>2016-05-19T12:55:23Z</time>
      </trkpt>
      <trkpt lat="43.22247" lon="5.46925">
        <ele>411.1</ele>
        <time>2016-05-19T12:55:48Z</time>
      </trkpt>
      <trkpt lat="43.22261" lon="5.46921">
        <ele>406.29</ele>
        <time>2016-05-19T12:56:13Z</time>
      </trkpt>
      <trkpt lat="43.22284" lon="5.46918">
        <ele>401.01</ele>
        <time>2016-05-19T12:56:38Z</time>
      </trkpt>
      <trkpt lat="43.22303" lon="5.46936">
        <ele>394.76</ele>
        <time>2016-05-19T12:57:03Z</time>
      </trkpt>
      <trkpt lat="43.22325" lon="5.46946">
        <ele>393.8</ele>
        <time>2016-05-19T12:57:28Z</time>
      </trkpt>
      <trkpt lat="43.22348" lon="5.46955">
        <ele>394.76</ele>
        <time>2016-05-19T12:57:53Z</time>
      </trkpt>
      <trkpt lat="43.2237" lon="5.46958">
        <ele>389.95</ele>
        <time>2016-05-19T12:58:18Z</time>
      </trkpt>
      <trkpt lat="43.22387" lon="5.46964">
        <ele>385.15</ele>
        <time>2016-05-19T12:58:43Z</time>
      </trkpt>
      <trkpt lat="43.22401" lon="5.46972">
        <ele>374.57</ele>
        <time>2016-05-19T12:59:08Z</time>
      </trkpt>
      <trkpt lat="43.22419" lon="5.46975">
        <ele>373.61</ele>
        <time>2016-05-19T12:59:33Z</time>
      </trkpt>
      <trkpt lat="43.22439" lon="5.46974">
        <ele>370.24</ele>
        <time>2016-05-19T12:59:58Z</time>
      </trkpt>
      <trkpt lat="43.22456" lon="5.46976">
        <ele>367.36</ele>
        <time>2016-05-19T13:00:23Z</time>
      </trkpt>
      <trkpt lat="43.22475" lon="5.46978">
        <ele>363.04</ele>
        <time>2016-05-19T13:00:48Z</time>
      </trkpt>
      <trkpt lat="43.22494" lon="5.46973">
        <ele>356.79</ele>
        <time>2016-05-19T13:01:13Z</time>
      </trkpt>
      <trkpt lat="43.22511" lon="5.46979">
        <ele>354.38</ele>
        <time>2016-05-19T13:01:38Z</time>
      </trkpt>
      <trkpt lat="43.2253" lon="5.46976">
        <ele>349.1</ele>
        <time>2016-05-19T13:02:03Z</time>
      </trkpt>
      <trkpt lat="43.22535" lon="5.46974">
        <ele>349.58</ele>
        <time>2016-05-19T13:02:28Z</time>
      </trkpt>
      <trkpt lat="43.22547" lon="5.46977">
        <ele>343.33</ele>
        <time>2016-05-19T13:02:53Z</time>
      </trkpt>
      <trkpt lat="43.22559" lon="5.46987">
        <ele>335.64</ele>
        <time>2016-05-19T13:03:18Z</time>
      </trkpt>
      <trkpt lat="43.2257" lon="5.47004">
        <ele>331.79</ele>
        <time>2016-05-19T13:03:43Z</time>
      </trkpt>
      <trkpt lat="43.22578" lon="5.46996">
        <ele>327.95</ele>
        <time>2016-05-19T13:04:08Z</time>
      </trkpt>
      <trkpt lat="43.22595" lon="5.46992">
        <ele>326.02</ele>
        <time>2016-05-19T13:04:33Z</time>
      </trkpt>
      <trkpt lat="43.22605" lon="5.4699">
        <ele>323.14</ele>
        <time>2016-05-19T13:04:58Z</time>
      </trkpt>
      <trkpt lat="43.2262" lon="5.46977">
        <ele>319.78</ele>
        <time>2016-05-19T13:05:23Z</time>
      </trkpt>
      <trkpt lat="43.22632" lon="5.4696">
        <ele>316.89</ele>
        <time>2016-05-19T13:05:48Z</time>
      </trkpt>
      <trkpt lat="43.22637" lon="5.46945">
        <ele>312.09</ele>
        <time>2016-05-19T13:06:13Z</time>
      </trkpt>
      <trkpt lat="43.2264" lon="5.46932">
        <ele>312.09</ele>
        <time>2016-05-19T13:06:38Z</time>
      </trkpt>
      <trkpt lat="43.22643" lon="5.46909">
        <ele>308.24</ele>
        <time>2016-05-19T13:07:03Z</time>
      </trkpt>
      <trkpt lat="43.22655" lon="5.46892">
        <ele>308.24</ele>
        <time>2016-05-19T13:07:28Z</time>
      </trkpt>
      <trkpt lat="43.22674" lon="5.4688">
        <ele>303.91</ele>
        <time>2016-05-19T13:07:53Z</time>
      </trkpt>
      <trkpt lat="43.22689" lon="5.46873">
        <ele>301.03</ele>
        <time>2016-05-19T13:08:18Z</time>
      </trkpt>
      <trkpt lat="43.22698" lon="5.46862">
        <ele>301.03</ele>
        <time>2016-05-19T13:08:43Z</time>
      </trkpt>
      <trkpt lat="43.22715" lon="5.46851">
        <ele>299.11</ele>
        <time>2016-05-19T13:09:08Z</time>
      </trkpt>
      <trkpt lat="43.22717" lon="5.46826">
        <ele>296.7</ele>
        <time>2016-05-19T13:09:33Z</time>
      </trkpt>
      <trkpt lat="43.22722" lon="5.46802">
        <ele>297.18</ele>
        <time>2016-05-19T13:09:58Z</time>
      </trkpt>
      <trkpt lat="43.22736" lon="5.46792">
        <ele>294.3</ele>
        <time>2016-05-19T13:10:23Z</time>
      </trkpt>
      <trkpt lat="43.22754" lon="5.46769">
        <ele>293.34</ele>
        <time>2016-05-19T13:10:48Z</time>
      </trkpt>
      <trkpt lat="43.22759" lon="5.46763">
        <ele>295.26</ele>
        <time>2016-05-19T13:11:13Z</time>
      </trkpt>
      <trkpt lat="43.22763" lon="5.46758">
        <ele>295.26</ele>
        <time>2016-05-19T13:11:38Z</time>
      </trkpt>
      <trkpt lat="43.22761" lon="5.46761">
        <ele>292.86</ele>
        <time>2016-05-19T13:12:03Z</time>
      </trkpt>
      <trkpt lat="43.22761" lon="5.46762">
        <ele>293.82</ele>
        <time>2016-05-19T13:12:28Z</time>
      </trkpt>
      <trkpt lat="43.22761" lon="5.46762">
        <ele>293.82</ele>
        <time>2016-05-19T13:12:53Z</time>
      </trkpt>
      <trkpt lat="43.22761" lon="5.46762">
        <ele>293.34</ele>
        <time>2016-05-19T13:13:18Z</time>
      </trkpt>
      <trkpt lat="43.22764" lon="5.4676">
        <ele>291.42</ele>
        <time>2016-05-19T13:13:43Z</time>
      </trkpt>
      <trkpt lat="43.22777" lon="5.46731">
        <ele>294.78</ele>
        <time>2016-05-19T13:14:08Z</time>
      </trkpt>
      <trkpt lat="43.22791" lon="5.46704">
        <ele>293.82</ele>
        <time>2016-05-19T13:14:33Z</time>
      </trkpt>
      <trkpt lat="43.22807" lon="5.46674">
        <ele>297.18</ele>
        <time>2016-05-19T13:14:58Z</time>
      </trkpt>
      <trkpt lat="43.22814" lon="5.46639">
        <ele>295.26</ele>
        <time>2016-05-19T13:15:23Z</time>
      </trkpt>
      <trkpt lat="43.22813" lon="5.46618">
        <ele>293.82</ele>
        <time>2016-05-19T13:15:48Z</time>
      </trkpt>
      <trkpt lat="43.22824" lon="5.46589">
        <ele>296.7</ele>
        <time>2016-05-19T13:16:13Z</time>
      </trkpt>
      <trkpt lat="43.22831" lon="5.46564">
        <ele>302.47</ele>
        <time>2016-05-19T13:16:38Z</time>
      </trkpt>
      <trkpt lat="43.2284" lon="5.46544">
        <ele>304.39</ele>
        <time>2016-05-19T13:17:03Z</time>
      </trkpt>
      <trkpt lat="43.22851" lon="5.4653">
        <ele>308.72</ele>
        <time>2016-05-19T13:17:28Z</time>
      </trkpt>
      <trkpt lat="43.22859" lon="5.46514">
        <ele>313.53</ele>
        <time>2016-05-19T13:17:53Z</time>
      </trkpt>
      <trkpt lat="43.22869" lon="5.46496">
        <ele>319.3</ele>
        <time>2016-05-19T13:18:18Z</time>
      </trkpt>
      <trkpt lat="43.22879" lon="5.46482">
        <ele>326.5</ele>
        <time>2016-05-19T13:18:43Z</time>
      </trkpt>
      <trkpt lat="43.2289" lon="5.46469">
        <ele>327.95</ele>
        <time>2016-05-19T13:19:08Z</time>
      </trkpt>
      <trkpt lat="43.22896" lon="5.46462">
        <ele>325.54</ele>
        <time>2016-05-19T13:19:33Z</time>
      </trkpt>
      <trkpt lat="43.22912" lon="5.46452">
        <ele>332.27</ele>
        <time>2016-05-19T13:19:58Z</time>
      </trkpt>
      <trkpt lat="43.22926" lon="5.46438">
        <ele>335.16</ele>
        <time>2016-05-19T13:20:23Z</time>
      </trkpt>
      <trkpt lat="43.22943" lon="5.46427">
        <ele>336.6</ele>
        <time>2016-05-19T13:20:48Z</time>
      </trkpt>
      <trkpt lat="43.22961" lon="5.46413">
        <ele>340.44</ele>
        <time>2016-05-19T13:21:13Z</time>
      </trkpt>
      <trkpt lat="43.22974" lon="5.46395">
        <ele>342.37</ele>
        <time>2016-05-19T13:21:38Z</time>
      </trkpt>
      <trkpt lat="43.22988" lon="5.46377">
        <ele>345.73</ele>
        <time>2016-05-19T13:22:03Z</time>
      </trkpt>
      <trkpt lat="43.23005" lon="5.46358">
        <ele>348.62</ele>
        <time>2016-05-19T13:22:28Z</time>
      </trkpt>
      <trkpt lat="43.23026" lon="5.46339">
        <ele>350.06</ele>
        <time>2016-05-19T13:22:53Z</time>
      </trkpt>
      <trkpt lat="43.23045" lon="5.46326">
        <ele>347.17</ele>
        <time>2016-05-19T13:23:18Z</time>
      </trkpt>
      <trkpt lat="43.23065" lon="5.46312">
        <ele>349.1</ele>
        <time>2016-05-19T13:23:43Z</time>
      </trkpt>
      <trkpt lat="43.23087" lon="5.46308">
        <ele>349.58</ele>
        <time>2016-05-19T13:24:08Z</time>
      </trkpt>
      <trkpt lat="43.23104" lon="5.46311">
        <ele>352.94</ele>
        <time>2016-05-19T13:24:33Z</time>
      </trkpt>
      <trkpt lat="43.23114" lon="5.46311">
        <ele>356.31</ele>
        <time>2016-05-19T13:24:58Z</time>
      </trkpt>
      <trkpt lat="43.23126" lon="5.46314">
        <ele>360.63</ele>
        <time>2016-05-19T13:25:23Z</time>
      </trkpt>
      <trkpt lat="43.23136" lon="5.46322">
        <ele>366.4</ele>
        <time>2016-05-19T13:25:48Z</time>
      </trkpt>
      <trkpt lat="43.23136" lon="5.46335">
        <ele>368.8</ele>
        <time>2016-05-19T13:26:13Z</time>
      </trkpt>
      <trkpt lat="43.23136" lon="5.46344">
        <ele>364.96</ele>
        <time>2016-05-19T13:26:38Z</time>
      </trkpt>
      <trkpt lat="43.23137" lon="5.46362">
        <ele>369.28</ele>
        <time>2016-05-19T13:27:03Z</time>
      </trkpt>
      <trkpt lat="43.23141" lon="5.46385">
        <ele>366.88</ele>
        <time>2016-05-19T13:27:28Z</time>
      </trkpt>
      <trkpt lat="43.23141" lon="5.464">
        <ele>367.84</ele>
        <time>2016-05-19T13:27:53Z</time>
      </trkpt>
      <trkpt lat="43.23143" lon="5.46425">
        <ele>369.76</ele>
        <time>2016-05-19T13:28:18Z</time>
      </trkpt>
      <trkpt lat="43.23152" lon="5.46434">
        <ele>372.65</ele>
        <time>2016-05-19T13:28:43Z</time>
      </trkpt>
      <trkpt lat="43.2316" lon="5.46447">
        <ele>377.45</ele>
        <time>2016-05-19T13:29:08Z</time>
      </trkpt>
      <trkpt lat="43.23172" lon="5.46443">
        <ele>385.15</ele>
        <time>2016-05-19T13:29:33Z</time>
      </trkpt>
      <trkpt lat="43.23187" lon="5.46423">
        <ele>389.95</ele>
        <time>2016-05-19T13:29:58Z</time>
      </trkpt>
      <trkpt lat="43.23209" lon="5.46411">
        <ele>391.87</ele>
        <time>2016-05-19T13:30:23Z</time>
      </trkpt>
      <trkpt lat="43.23226" lon="5.46409">
        <ele>396.68</ele>
        <time>2016-05-19T13:30:48Z</time>
      </trkpt>
      <trkpt lat="43.23248" lon="5.46411">
        <ele>391.39</ele>
        <time>2016-05-19T13:31:13Z</time>
      </trkpt>
      <trkpt lat="43.23271" lon="5.46421">
        <ele>394.76</ele>
        <time>2016-05-19T13:31:38Z</time>
      </trkpt>
      <trkpt lat="43.23292" lon="5.46426">
        <ele>396.68</ele>
        <time>2016-05-19T13:32:03Z</time>
      </trkpt>
      <trkpt lat="43.23301" lon="5.46429">
        <ele>397.16</ele>
        <time>2016-05-19T13:32:28Z</time>
      </trkpt>
      <trkpt lat="43.2332" lon="5.46425">
        <ele>387.55</ele>
        <time>2016-05-19T13:32:53Z</time>
      </trkpt>
      <trkpt lat="43.23341" lon="5.46413">
        <ele>388.03</ele>
        <time>2016-05-19T13:33:18Z</time>
      </trkpt>
      <trkpt lat="43.2336" lon="5.46393">
        <ele>382.26</ele>
        <time>2016-05-19T13:33:43Z</time>
      </trkpt>
      <trkpt lat="43.2338" lon="5.46374">
        <ele>385.15</ele>
        <time>2016-05-19T13:34:08Z</time>
      </trkpt>
      <trkpt lat="43.234" lon="5.46349">
        <ele>378.9</ele>
        <time>2016-05-19T13:34:33Z</time>
      </trkpt>
      <trkpt lat="43.23415" lon="5.46328">
        <ele>379.86</ele>
        <time>2016-05-19T13:34:58Z</time>
      </trkpt>
      <trkpt lat="43.23432" lon="5.46302">
        <ele>382.74</ele>
        <time>2016-05-19T13:35:23Z</time>
      </trkpt>
      <trkpt lat="43.23447" lon="5.46281">
        <ele>381.3</ele>
        <time>2016-05-19T13:35:48Z</time>
      </trkpt>
      <trkpt lat="43.2346" lon="5.46255">
        <ele>380.82</ele>
        <time>2016-05-19T13:36:13Z</time>
      </trkpt>
      <trkpt lat="43.23478" lon="5.46232">
        <ele>384.18</ele>
        <time>2016-05-19T13:36:38Z</time>
      </trkpt>
      <trkpt lat="43.23493" lon="5.46211">
        <ele>387.07</ele>
        <time>2016-05-19T13:37:03Z</time>
      </trkpt>
      <trkpt lat="43.23514" lon="5.46196">
        <ele>387.07</ele>
        <time>2016-05-19T13:37:28Z</time>
      </trkpt>
      <trkpt lat="43.23531" lon="5.46185">
        <ele>390.43</ele>
        <time>2016-05-19T13:37:53Z</time>
      </trkpt>
      <trkpt lat="43.23552" lon="5.46177">
        <ele>392.84</ele>
        <time>2016-05-19T13:38:18Z</time>
      </trkpt>
      <trkpt lat="43.23571" lon="5.46174">
        <ele>396.2</ele>
        <time>2016-05-19T13:38:43Z</time>
      </trkpt>
      <trkpt lat="43.23579" lon="5.46148">
        <ele>394.76</ele>
        <time>2016-05-19T13:39:08Z</time>
      </trkpt>
      <trkpt lat="43.23582" lon="5.46121">
        <ele>389.95</ele>
        <time>2016-05-19T13:39:33Z</time>
      </trkpt>
      <trkpt lat="43.23582" lon="5.46089">
        <ele>378.9</ele>
        <time>2016-05-19T13:39:58Z</time>
      </trkpt>
      <trkpt lat="43.23577" lon="5.46056">
        <ele>372.17</ele>
        <time>2016-05-19T13:40:23Z</time>
      </trkpt>
      <trkpt lat="43.23572" lon="5.46025">
        <ele>364.96</ele>
        <time>2016-05-19T13:40:48Z</time>
      </trkpt>
      <trkpt lat="43.23565" lon="5.46001">
        <ele>363.52</ele>
        <time>2016-05-19T13:41:13Z</time>
      </trkpt>
      <trkpt lat="43.23569" lon="5.45982">
        <ele>362.07</ele>
        <time>2016-05-19T13:41:38Z</time>
      </trkpt>
      <trkpt lat="43.23568" lon="5.45957">
        <ele>354.38</ele>
        <time>2016-05-19T13:42:03Z</time>
      </trkpt>
      <trkpt lat="43.23571" lon="5.45934">
        <ele>350.54</ele>
        <time>2016-05-19T13:42:28Z</time>
      </trkpt>
      <trkpt lat="43.23579" lon="5.45903">
        <ele>346.69</ele>
        <time>2016-05-19T13:42:53Z</time>
      </trkpt>
      <trkpt lat="43.23591" lon="5.4588">
        <ele>344.77</ele>
        <time>2016-05-19T13:43:18Z</time>
      </trkpt>
      <trkpt lat="43.23604" lon="5.45851">
        <ele>339</ele>
        <time>2016-05-19T13:43:43Z</time>
      </trkpt>
      <trkpt lat="43.23622" lon="5.45828">
        <ele>337.56</ele>
        <time>2016-05-19T13:44:08Z</time>
      </trkpt>
      <trkpt lat="43.23641" lon="5.45808">
        <ele>337.56</ele>
        <time>2016-05-19T13:44:33Z</time>
      </trkpt>
      <trkpt lat="43.23656" lon="5.45802">
        <ele>332.27</ele>
        <time>2016-05-19T13:44:58Z</time>
      </trkpt>
      <trkpt lat="43.2366" lon="5.45801">
        <ele>330.83</ele>
        <time>2016-05-19T13:45:23Z</time>
      </trkpt>
      <trkpt lat="43.23678" lon="5.45799">
        <ele>330.83</ele>
        <time>2016-05-19T13:45:48Z</time>
      </trkpt>
      <trkpt lat="43.23702" lon="5.45795">
        <ele>330.35</ele>
        <time>2016-05-19T13:46:13Z</time>
      </trkpt>
      <trkpt lat="43.23726" lon="5.45793">
        <ele>332.75</ele>
        <time>2016-05-19T13:46:38Z</time>
      </trkpt>
      <trkpt lat="43.23751" lon="5.45795">
        <ele>328.43</ele>
        <time>2016-05-19T13:47:03Z</time>
      </trkpt>
      <trkpt lat="43.23776" lon="5.45803">
        <ele>326.99</ele>
        <time>2016-05-19T13:47:28Z</time>
      </trkpt>
      <trkpt lat="43.23801" lon="5.45792">
        <ele>329.87</ele>
        <time>2016-05-19T13:47:53Z</time>
      </trkpt>
      <trkpt lat="43.23824" lon="5.45777">
        <ele>328.43</ele>
        <time>2016-05-19T13:48:18Z</time>
      </trkpt>
      <trkpt lat="43.23848" lon="5.45768">
        <ele>329.39</ele>
        <time>2016-05-19T13:48:43Z</time>
      </trkpt>
      <trkpt lat="43.23871" lon="5.4575">
        <ele>328.43</ele>
        <time>2016-05-19T13:49:08Z</time>
      </trkpt>
      <trkpt lat="43.23885" lon="5.45728">
        <ele>326.5</ele>
        <time>2016-05-19T13:49:33Z</time>
      </trkpt>
      <trkpt lat="43.23902" lon="5.45701">
        <ele>325.54</ele>
        <time>2016-05-19T13:49:58Z</time>
      </trkpt>
      <trkpt lat="43.23923" lon="5.45684">
        <ele>325.54</ele>
        <time>2016-05-19T13:50:23Z</time>
      </trkpt>
      <trkpt lat="43.23942" lon="5.45687">
        <ele>325.54</ele>
        <time>2016-05-19T13:50:48Z</time>
      </trkpt>
      <trkpt lat="43.23966" lon="5.45698">
        <ele>322.18</ele>
        <time>2016-05-19T13:51:13Z</time>
      </trkpt>
      <trkpt lat="43.23994" lon="5.45693">
        <ele>321.7</ele>
        <time>2016-05-19T13:51:38Z</time>
      </trkpt>
      <trkpt lat="43.24021" lon="5.45696">
        <ele>321.22</ele>
        <time>2016-05-19T13:52:03Z</time>
      </trkpt>
      <trkpt lat="43.24032" lon="5.45699">
        <ele>321.22</ele>
        <time>2016-05-19T13:52:28Z</time>
      </trkpt>
      <trkpt lat="43.24029" lon="5.45703">
        <ele>321.7</ele>
        <time>2016-05-19T13:52:53Z</time>
      </trkpt>
      <trkpt lat="43.24029" lon="5.45704">
        <ele>321.22</ele>
        <time>2016-05-19T13:53:18Z</time>
      </trkpt>
      <trkpt lat="43.24028" lon="5.457">
        <ele>322.66</ele>
        <time>2016-05-19T13:53:43Z</time>
      </trkpt>
      <trkpt lat="43.24026" lon="5.45704">
        <ele>322.18</ele>
        <time>2016-05-19T13:54:08Z</time>
      </trkpt>
      <trkpt lat="43.24031" lon="5.45698">
        <ele>322.66</ele>
        <time>2016-05-19T13:54:33Z</time>
      </trkpt>
      <trkpt lat="43.24033" lon="5.45694">
        <ele>321.7</ele>
        <time>2016-05-19T13:54:58Z</time>
      </trkpt>
      <trkpt lat="43.24031" lon="5.45697">
        <ele>322.18</ele>
        <time>2016-05-19T13:55:23Z</time>
      </trkpt>
    </trkseg>
  </trk>
</gpx>